Blackskull305 Games - Total: 27688
Rank Song Name Score PGAMB Combo Time
48 Rain [YMCK] 3,527,420 3,339 - 13 - 1 - 2 - 2 1,688 2020-03-28 07:59:04
93 Miserable Bastard 683,620 640 - 3 - 1 - 4 - 1 332 2020-03-28 07:53:17
111 Stinger 2,429,040 2,012 - 11 - 1 - 2 - 1 1,320 2020-03-28 07:52:11
171 grind4 667,320 646 - 21 - 1 - 9 - 1 309 2020-03-28 07:49:41
14 Amnehilesie 1,696,555 1,901 - 29 - 0 - 3 - 2 644 2020-03-28 07:48:31
210 Serious Shit 1,818,765 2,189 - 92 - 5 - 28 - 4 598 2020-03-28 07:45:21
264 Eclipse (Solar) 1,343,925 1,431 - 10 - 1 - 3 - 0 555 2020-03-28 07:42:57
90 Stress Free Style 2,560,450 2,850 - 33 - 3 - 7 - 6 986 2020-03-28 07:40:18
256 oppIrish (GYPSYCOREremix) 1,948,055 1,879 - 35 - 2 - 13 - 5 909 2020-03-28 07:36:15
90 oppIrish (GYPSYCOREremix) 2,340,680 2,966 - 24 - 6 - 11 - 7 706 2020-03-28 07:34:04
550 oppIrish (GYPSYCOREremix) 53,700 33 - 2 - 0 - 0 - 0 35 2020-03-28 07:30:43
77 oppIrish (GYPSYCOREremix) 2,547,195 2,973 - 23 - 6 - 5 - 3 907 2020-03-28 07:29:08
56 oppIrish (GYPSYCOREremix) 2,918,465 2,978 - 26 - 1 - 2 - 1 1,274 2020-03-28 07:24:33
472 DISCHARGE RUSH 1,547,080 1,184 - 30 - 4 - 5 - 2 889 2020-03-28 07:20:50
1,830 DISCHARGE RUSH 61,725 39 - 1 - 0 - 0 - 0 40 2020-03-28 07:19:28
365 Reluctantly Accepting Temporary Overexhaustion 1,000,115 1,386 - 89 - 8 - 22 - 14 220 2020-03-28 07:18:49
70 Odd-22 1,681,145 2,180 - 60 - 3 - 14 - 9 470 2020-03-28 07:15:35
85 Staple on Smile 1,483,770 1,925 - 40 - 4 - 10 - 5 417 2020-03-28 07:12:53
64 Metro 1,860,120 2,428 - 33 - 3 - 8 - 2 518 2020-03-28 07:09:49
35 Reluctantly Accepting Temporary Overexhaustion v2 2,020,590 2,186 - 33 - 1 - 12 - 6 813 2020-03-28 07:06:11
383 Dragonsbane 2,495,210 3,373 - 59 - 7 - 27 - 9 632 2020-03-28 06:03:11
273 Minute Waltz 1,199,425 1,034 - 18 - 1 - 4 - 2 627 2020-03-28 05:54:51
703 Caprice No. 5 1,115,225 1,278 - 11 - 2 - 9 - 1 412 2020-03-28 05:43:35
142 to Luv me I *** for u. 999,610 951 - 19 - 3 - 9 - 2 474 2020-03-28 05:38:46
2,089 Infernoplex 1,357,085 1,433 - 15 - 0 - 7 - 1 567 2020-03-28 05:33:17
1,943 MAX Forever 2,415,320 2,654 - 48 - 2 - 5 - 7 944 2020-03-28 05:26:05
82 ROCKER HELLCAT [FC] 1,794,625 1,157 - 1 - 0 - 0 - 0 1,158 2020-03-28 05:21:00
224 R/\IN [FC] 1,112,625 717 - 1 - 0 - 0 - 0 718 2020-03-28 05:17:22
189 moon_child -Go with the flow- [FC] 1,865,650 1,202 - 2 - 0 - 0 - 0 1,204 2020-03-28 05:14:28
1 Gradeus [AAA] [FC] 2,332,750 1,505 - 0 - 0 - 0 - 0 1,505 2020-03-28 05:09:42
101 oppIrish (GYPSYCOREremix) 3,101,015 2,944 - 46 - 7 - 10 - 6 1,472 2020-03-28 05:03:05
404 oppIrish (GYPSYCOREremix) 646,380 420 - 0 - 0 - 2 - 0 416 2020-03-28 04:59:38
552 oppIrish (GYPSYCOREremix) 49,465 28 - 5 - 0 - 1 - 0 33 2020-03-28 04:58:17
12 echoes of wind 1,895,940 1,353 - 4 - 0 - 1 - 0 1,151 2020-03-28 04:30:49
894 Megalovania 1,167,515 1,022 - 13 - 4 - 4 - 7 603 2020-03-28 04:27:07
13 -Ricochet Love- [FC] 3,783,275 2,440 - 1 - 0 - 0 - 0 2,441 2020-03-28 04:23:47
1 Destination Of The Heart [AAA] [FC] 1,540,700 994 - 0 - 0 - 0 - 0 994 2020-03-28 04:18:14
1 Clockwork [Breakbeat Heartbeat] [AAA] [FC] 1,963,850 1,267 - 0 - 0 - 0 - 0 1,267 2020-03-28 04:15:03
239 VS Boss Battle [FC] 1,408,675 908 - 1 - 0 - 0 - 0 909 2020-03-28 04:11:46
48 AVALON [FC] 2,249,775 1,449 - 3 - 0 - 0 - 0 1,452 2020-03-28 04:09:57
230 Devilz Staircase 1,676,890 1,082 - 4 - 0 - 1 - 0 1,081 2020-03-28 04:06:35
100 -+ [FC] 2,026,750 1,301 - 8 - 0 - 0 - 0 1,309 2020-03-28 04:03:12
13 the nature of dying 1,939,200 1,694 - 5 - 1 - 3 - 0 1,007 2020-03-28 03:58:48
55 Nekuro no Makkuro Kuro Majutsu [FC] 3,775,405 2,430 - 7 - 0 - 0 - 1 2,437 2020-03-28 03:54:30
89 sylcmyk's theme [FC] 1,767,450 1,137 - 4 - 0 - 0 - 0 1,141 2020-03-28 03:46:04
1 Where Are You Christmas [AAA] [FC] 984,250 635 - 0 - 0 - 0 - 0 635 2020-03-28 02:37:05
1 Moonlight [AAA] [FC] 1,371,750 885 - 0 - 0 - 0 - 0 885 2020-03-28 02:33:09
76,558 Funk in G 143,875 92 - 1 - 0 - 0 - 0 93 2020-03-28 02:30:16
1 136.6 [AAA] [FC] 860,250 555 - 0 - 0 - 0 - 0 555 2020-03-28 02:29:32
1 Night Of Flight [AAA] [FC] 2,439,700 1,574 - 0 - 0 - 0 - 0 1,574 2020-03-28 01:53:29
1 Sky Dive [AAA] [FC] 1,170,250 755 - 0 - 0 - 0 - 0 755 2020-03-28 01:49:27
1 Courage [AAA] [FC] 1,289,600 832 - 0 - 0 - 0 - 0 832 2020-03-28 01:47:01
1 Dr. Wily Stage 1 v2 [AAA] [FC] 482,050 311 - 0 - 0 - 0 - 0 311 2020-03-28 01:44:15
1 Uber Rave v2 [AAA] [FC] 1,590,300 1,026 - 0 - 0 - 0 - 0 1,026 2020-03-28 01:42:50
1 Moonbeam [AAA] [FC] 1,371,750 885 - 0 - 0 - 0 - 0 885 2020-03-28 01:40:32
601 dot death (Stealth Remix) [FC] 1,497,025 965 - 1 - 0 - 0 - 0 966 2020-03-28 01:37:41
1 Lovely Lovely Lovely [AAA] [FC] 1,280,300 826 - 0 - 0 - 0 - 0 826 2020-03-28 01:35:37
1 Below The Surface [AAA] [FC] 514,600 332 - 0 - 0 - 0 - 0 332 2020-03-28 01:34:04
547 Evil Approaches [FC] 1,213,100 781 - 2 - 0 - 0 - 0 783 2020-03-28 01:32:25
1 Domani [AAA] [FC] 1,340,750 865 - 0 - 0 - 0 - 0 865 2020-03-28 01:30:22
1 Pondering Stuff [AAA] [FC] 522,350 337 - 0 - 0 - 0 - 0 337 2020-03-28 01:27:48
1 Song For The Nihonjins [AAA] [FC] 2,210,300 1,426 - 0 - 0 - 0 - 0 1,426 2020-03-28 01:26:41
1 Noir (Remixed) [AAA] [FC] 858,700 554 - 0 - 0 - 0 - 0 554 2020-03-28 01:22:16
8,076 Rondo Alla Turca v2 1,193,375 782 - 5 - 0 - 10 - 0 765 2020-03-28 01:20:35
437 Visions (NRGyzd Remix) [FC] 2,091,400 1,346 - 4 - 0 - 0 - 0 1,350 2020-03-28 01:19:04
1 ASB [AAA] [FC] 1,329,900 858 - 0 - 0 - 0 - 0 858 2020-03-28 01:15:38
1,718 The Whip 606,980 392 - 0 - 0 - 2 - 0 392 2020-03-28 01:12:26
184 Dance and Zeal [FC] 1,921,155 1,237 - 3 - 0 - 0 - 1 1,240 2020-03-28 01:06:04
43 Reluctantly Accepting Temporary Overexhaustion v2 971,870 1,105 - 18 - 0 - 9 - 2 362 2020-03-27 09:11:11
142 Jamais Vu 1,386,100 1,941 - 36 - 2 - 14 - 6 313 2020-03-27 09:09:45
27 Hyper Weaboo Vodka Shots 1,642,360 1,980 - 91 - 3 - 15 - 9 533 2020-03-27 09:06:57
258 Rave 7 1,182,415 1,440 - 43 - 6 - 12 - 1 382 2020-03-27 09:04:51
98 Heterochromia Iridis 1,807,335 1,951 - 25 - 0 - 5 - 2 729 2020-03-27 09:03:02
77 oppIrish (GYPSYCOREremix) 2,895,145 2,972 - 26 - 1 - 8 - 9 1,256 2020-03-27 09:00:39
528 oppIrish (GYPSYCOREremix) 125,275 80 - 1 - 0 - 0 - 0 81 2020-03-27 08:57:14
25 Please Don't Remember 1,963,080 2,252 - 32 - 0 - 4 - 4 717 2020-03-27 08:56:46
38 Cest What 2,080,370 1,539 - 14 - 0 - 3 - 0 1,231 2020-03-27 08:53:22
93 CirnoRHTL 2,416,960 2,293 - 16 - 0 - 5 - 2 1,153 2020-03-27 08:50:42
164 Slashmaid (instrumental) 2,158,000 2,448 - 29 - 9 - 9 - 4 806 2020-03-27 08:47:50
51 Sayonara Cosmonaut 1,772,485 2,316 - 20 - 1 - 9 - 4 496 2020-03-27 08:44:36
31 No Reply 1,359,025 1,608 - 13 - 0 - 3 - 1 472 2020-03-27 08:41:47
49 sniffing stardust on the dancefloor 1,508,855 1,381 - 7 - 0 - 2 - 0 748 2020-03-27 08:38:40
152 Ultrasounds! [FC] 1,922,625 1,233 - 9 - 0 - 0 - 0 1,242 2020-03-27 08:33:33
132 CirnoRHTL 475,925 298 - 11 - 0 - 0 - 0 309 2020-03-25 03:18:03
133 CirnoRHTL 19,635 12 - 0 - 1 - 0 - 1 13 2020-03-25 03:17:41
128 CirnoRHTL 837,980 539 - 2 - 0 - 0 - 1 541 2020-03-25 03:17:35
133 CirnoRHTL 18,085 11 - 0 - 1 - 0 - 1 12 2020-03-25 03:17:01
132 CirnoRHTL 324,470 233 - 6 - 0 - 1 - 1 195 2020-03-25 03:16:56
132 CirnoRHTL 388,500 249 - 2 - 0 - 0 - 0 251 2020-03-25 03:16:40
132 CirnoRHTL 325,155 250 - 1 - 0 - 2 - 0 188 2020-03-25 03:16:22
77 CirnoRHTL 2,960,360 2,297 - 16 - 0 - 1 - 4 1,693 2020-03-25 03:15:55
132 CirnoRHTL 188,825 121 - 1 - 0 - 0 - 0 122 2020-03-25 03:13:16
132 CirnoRHTL 490,515 341 - 1 - 0 - 1 - 0 303 2020-03-25 03:13:06
137 Miserable Bastard 187,515 120 - 3 - 0 - 1 - 0 121 2020-03-25 03:12:19
28 Miserable Bastard 1,252,895 1,278 - 21 - 0 - 12 - 3 548 2020-03-25 03:12:04
130 Japan Style Breakcore!!! 2,892,945 2,209 - 24 - 1 - 2 - 2 1,672 2020-03-25 03:10:17
856 Japan Style Breakcore!!! 867,225 583 - 7 - 0 - 1 - 2 545 2020-03-25 03:07:06
286 grind4 527,645 579 - 17 - 2 - 5 - 2 206 2020-03-25 03:05:55
152 grind4 622,370 652 - 15 - 5 - 5 - 4 261 2020-03-25 03:05:19
158 grind4 595,840 651 - 15 - 3 - 8 - 1 236 2020-03-25 03:04:38
47 ephemera 1,268,630 1,123 - 25 - 1 - 3 - 1 645 2020-03-25 03:03:52
138 No Time For Sleep 379,290 249 - 14 - 2 - 2 - 0 239 2020-03-25 03:02:15
20 No Time For Sleep 557,405 602 - 7 - 0 - 2 - 0 225 2020-03-25 03:01:09
130 No Time For Sleep 455,420 392 - 10 - 0 - 3 - 0 238 2020-03-25 02:59:54
130 No Time For Sleep 369,295 384 - 13 - 0 - 8 - 0 157 2020-03-25 02:59:03
161 grind4 677,875 649 - 18 - 3 - 7 - 1 318 2020-03-25 02:58:14
138 No Time For Sleep 351,340 251 - 9 - 1 - 4 - 0 212 2020-03-25 02:57:17
75 No Time For Sleep 551,295 565 - 9 - 0 - 3 - 0 239 2020-03-25 02:56:37
137 No Time For Sleep 405,950 254 - 8 - 2 - 0 - 3 264 2020-03-25 02:54:55
125 No Time For Sleep 493,710 461 - 10 - 0 - 5 - 2 239 2020-03-25 02:54:17
86 No Time For Sleep 546,785 559 - 7 - 0 - 5 - 2 239 2020-03-25 02:53:25
43 No Time For Sleep 480,535 590 - 13 - 0 - 8 - 3 155 2020-03-25 02:52:24
143 No Time For Sleep 278,200 221 - 8 - 0 - 5 - 0 156 2020-03-25 02:50:54
95 Please Don't Remember 558,280 435 - 7 - 1 - 3 - 1 318 2020-03-25 01:41:42
535 Call me it. (500 Tortures) 1,292,590 1,667 - 47 - 3 - 17 - 4 368 2020-03-25 01:40:27
233 _.Pulse 1,247,305 1,441 - 31 - 0 - 15 - 6 451 2020-03-25 01:25:42
123 MANIERA 1,831,650 1,758 - 12 - 2 - 2 - 2 862 2020-03-25 01:23:21
1,996 MANIERA 57,350 37 - 0 - 0 - 0 - 0 37 2020-03-25 01:21:06
68 Make the Fire Burn 2,219,605 2,578 - 72 - 7 - 14 - 7 786 2020-03-25 01:19:59
166 System Doctor 2,088,895 2,025 - 44 - 7 - 4 - 5 964 2020-03-25 01:15:32
30 to Luv me I *** for u. 2,377,045 2,504 - 40 - 1 - 7 - 2 991 2020-03-25 01:11:12
42 Powerflux 3,360,415 3,952 - 98 - 5 - 27 - 2 1,168 2020-03-25 01:05:51
17 Six Acid Strings 2,235,085 1,807 - 20 - 1 - 4 - 4 1,237 2020-03-25 01:01:06
214 Eclipse (Solar) 1,684,555 1,434 - 9 - 0 - 2 - 0 894 2020-03-25 00:57:52
112 Extratone Pirates (Drunk Optimus Remix) 2,178,645 1,854 - 20 - 1 - 5 - 3 1,155 2020-03-25 00:55:11
88 OWA Raged In Vegas (Fuck Bees) 2,999,085 2,962 - 51 - 4 - 4 - 1 1,357 2020-03-25 00:51:34
81 Odd-22 1,615,165 2,160 - 71 - 8 - 18 - 11 413 2020-03-25 00:47:03
12 Reluctantly Accepting Temporary Overexhaustion v2 2,308,040 3,027 - 51 - 1 - 9 - 5 632 2020-03-25 00:44:09
61 DISCHARGE RUSH 1,592,005 1,863 - 18 - 1 - 5 - 5 564 2020-03-25 00:40:27
56 Metro 2,273,045 2,438 - 28 - 1 - 5 - 3 926 2020-03-25 00:37:07
97 Heterochromia Iridis 1,637,595 1,954 - 21 - 0 - 6 - 1 559 2020-03-25 00:33:43
127 System Doctor 2,410,720 2,045 - 26 - 2 - 7 - 6 1,281 2020-03-25 00:31:12
1,213 Jamais Vu 876,375 922 - 25 - 2 - 15 - 3 367 2020-03-25 00:27:54
177 Rave 7 1,806,715 1,459 - 38 - 3 - 1 - 2 994 2020-03-25 00:26:37
46 Cest What 1,454,805 1,534 - 17 - 0 - 5 - 1 608 2020-03-25 00:24:46
204 Cest What 265,565 172 - 1 - 0 - 1 - 0 171 2020-03-25 00:22:43
158 A Quick Death 1,614,330 1,625 - 20 - 0 - 6 - 3 717 2020-03-25 00:22:13
122 A Quick Death 1,676,390 1,634 - 12 - 0 - 5 - 3 776 2020-03-25 00:19:27
102 Title (Double Dragon) 3,460,005 2,793 - 10 - 1 - 3 - 1 1,922 2020-03-25 00:16:35
89 Lawn Wake II [FC] 2,442,955 1,572 - 5 - 0 - 0 - 1 1,577 2020-03-25 00:12:26
79 grind2 v2 1,468,770 943 - 5 - 1 - 1 - 0 949 2020-03-25 00:09:53
44 No Reply 1,623,595 1,594 - 22 - 1 - 7 - 2 743 2020-03-25 00:08:23
79 Extratone in a Perfect World 1,592,130 1,296 - 36 - 0 - 5 - 1 871 2020-03-25 00:05:08
41,902 Excite Bike [Light] [FC] 46,465 23 - 6 - 3 - 0 - 0 32 2020-03-24 19:29:29
1 Excite Bike [Light] [AAA] [FC] 49,600 32 - 0 - 0 - 0 - 0 32 2020-03-24 19:29:05
119 Staple on Smile 1,432,230 1,902 - 53 - 3 - 21 - 5 378 2020-03-24 19:26:02
23 Crystal Chamber Combustion (bike) 1,195,610 1,681 - 473 - 41 - 73 - 32 162 2020-03-24 19:09:40
42 Reluctantly Accepting Temporary Overexhaustion v2 781,105 694 - 19 - 2 - 3 - 0 395 2020-03-23 03:45:40
1,831 Magical 8bit Tour 1,578,395 1,214 - 13 - 0 - 6 - 1 909 2020-03-22 22:22:14
4,504 Magical 8bit Tour 12,125 7 - 1 - 0 - 0 - 0 8 2020-03-22 22:20:34
1,831 Magical 8bit Tour 1,231,680 1,213 - 14 - 0 - 4 - 4 562 2020-03-22 22:20:29
1,814 Magical 8bit Tour 1,755,790 1,224 - 14 - 0 - 4 - 1 1,080 2020-03-22 22:18:48
4,268 Magical 8bit Tour 32,275 20 - 1 - 0 - 0 - 0 21 2020-03-22 22:17:09
2,608 Magical 8bit Tour 772,565 511 - 3 - 0 - 1 - 0 491 2020-03-22 22:17:00
3,758 Magical 8bit Tour 159,355 102 - 1 - 0 - 0 - 1 103 2020-03-22 22:16:15
1,620 Fushigi Usagi Milk Tei 931,255 949 - 19 - 0 - 6 - 3 406 2020-03-22 22:15:58
123 do i smile? 1,959,760 2,067 - 38 - 2 - 5 - 5 814 2020-03-22 22:14:28
64 Metro 1,859,070 2,434 - 26 - 0 - 12 - 3 517 2020-03-22 22:11:09
64 Punkture 993,320 1,311 - 10 - 4 - 8 - 11 272 2020-03-22 22:07:46
52 Punkture 1,217,160 1,311 - 16 - 2 - 4 - 8 493 2020-03-22 22:05:55
63 Punkture 1,513,290 1,305 - 21 - 3 - 4 - 8 791 2020-03-22 22:03:58
590 Punkture 115,735 74 - 0 - 1 - 0 - 1 75 2020-03-22 22:02:11
182 J'ai Envie de Plaisir X2 1,377,970 1,628 - 16 - 2 - 6 - 4 480 2020-03-22 22:01:50
3,970 J'ai Envie de Plaisir X2 15,225 9 - 1 - 0 - 0 - 0 10 2020-03-22 21:59:32
18 Please Don't Remember 3,171,000 2,267 - 20 - 0 - 1 - 2 1,919 2020-03-22 21:59:19
105 Please Don't Remember 3,100 2 - 0 - 0 - 0 - 0 2 2020-03-22 21:56:23
85 Epileptic Crisis [Oni] 1,517,210 1,680 - 24 - 2 - 8 - 1 589 2020-03-22 21:56:02
104 DISCHARGE RUSH 1,518,840 1,836 - 39 - 3 - 9 - 3 501 2020-03-22 21:53:56
23 Six Acid Strings 1,585,835 1,799 - 22 - 5 - 6 - 4 592 2020-03-22 21:51:42
82 Staple on Smile 1,442,470 1,928 - 38 - 2 - 11 - 4 375 2020-03-22 21:49:16
100 Powerflux 2,622,905 3,689 - 98 - 11 - 40 - 10 579 2020-03-22 21:46:36
179 Extratone Pirates (Drunk Optimus Remix) 1,646,690 1,836 - 26 - 4 - 14 - 7 634 2020-03-22 21:33:43
46 Cest What 1,355,180 1,534 - 16 - 0 - 6 - 3 509 2020-03-22 21:31:12
160 Cest What 945,665 613 - 3 - 0 - 1 - 0 608 2020-03-22 21:28:32
39 Reluctantly Accepting Temporary Overexhaustion v2 1,149,250 996 - 10 - 0 - 4 - 3 600 2020-03-22 21:27:22
47 Reluctantly Accepting Temporary Overexhaustion v2 36,925 23 - 1 - 0 - 0 - 0 24 2020-03-22 21:26:20
47 Reluctantly Accepting Temporary Overexhaustion v2 40,840 33 - 0 - 0 - 1 - 0 23 2020-03-22 21:26:10
24 Chik Habit v2 2,830,145 2,182 - 5 - 0 - 1 - 1 1,629 2020-03-22 21:25:49
43 Chik Habit v2 3,095,370 2,169 - 17 - 1 - 1 - 0 1,898 2020-03-22 21:22:53
2,126 A Dichroic Glass Snafu 355,135 321 - 3 - 2 - 1 - 2 178 2020-03-21 02:59:02
739 Epileptic Crisis [Oni] 902,175 573 - 11 - 0 - 0 - 0 584 2020-03-21 02:58:27
71 Six Acid Strings 1,342,345 1,235 - 30 - 3 - 4 - 4 656 2020-03-21 02:57:39
186 Odd-22 1,715,165 1,772 - 77 - 8 - 9 - 13 722 2020-03-21 02:55:49
3,607 Reluctantly Accepting Temporary Overexhaustion 920,010 968 - 51 - 5 - 11 - 14 377 2020-03-21 02:53:37
37 Cest What 2,082,895 1,542 - 10 - 1 - 3 - 4 1,233 2020-03-21 02:52:35
1,286 Counter Clockwise Chant Pattern 946,840 612 - 2 - 0 - 1 - 0 610 2020-03-21 02:50:26
80 Counter Clockwise Chant Pattern 1,558,380 1,419 - 2 - 0 - 2 - 0 778 2020-03-21 02:49:32
84 System Doctor 2,405,660 2,054 - 24 - 0 - 2 - 1 1,270 2020-03-21 02:47:18
53 System Doctor 2,409,230 2,065 - 14 - 0 - 1 - 3 1,270 2020-03-21 02:44:07
103 System Doctor 2,358,005 2,056 - 16 - 1 - 7 - 4 1,225 2020-03-21 02:40:57
1,692 System Doctor 607,235 396 - 0 - 1 - 2 - 0 390 2020-03-21 02:37:47
536 Make the Fire Burn 1,042,855 922 - 25 - 2 - 7 - 3 531 2020-03-21 02:36:32
130 to Luv me I *** for u. 1,586,235 1,449 - 11 - 2 - 9 - 3 789 2020-03-21 02:35:03
2,545 La Campanella 2,711,870 1,942 - 30 - 2 - 5 - 2 1,637 2020-03-21 02:32:53
5,315 La Campanella 359,490 236 - 0 - 0 - 1 - 0 230 2020-03-21 02:27:09
5,916 La Campanella 195,640 129 - 0 - 0 - 1 - 0 125 2020-03-21 02:26:37
162 Heavenly Castle velier 237,855 151 - 3 - 0 - 0 - 1 154 2020-03-21 02:26:01
122 Finixe 1,554,155 992 - 13 - 0 - 0 - 1 1,005 2020-03-21 02:25:34
28 Heavenly Castle velier 2,169,910 2,250 - 17 - 1 - 4 - 4 929 2020-03-21 02:24:14
32 Heavenly Castle velier 1,830,295 2,240 - 22 - 1 - 9 - 1 595 2020-03-21 02:22:08
206 White Walls [Part 2] 1,780,110 1,134 - 16 - 2 - 0 - 5 1,152 2020-03-21 02:06:26
34 White Walls [Part 2] 4,029,630 3,769 - 13 - 1 - 3 - 1 1,954 2020-03-21 02:03:54
192 White Walls [Part 2] 1,956,585 1,483 - 14 - 1 - 3 - 2 1,138 2020-03-21 01:56:37
273 oppIrish (GYPSYCOREremix) 1,550,915 1,562 - 20 - 1 - 2 - 6 687 2020-03-21 01:53:08
132 CirnoRHTL 248,165 163 - 4 - 1 - 2 - 1 158 2020-03-21 01:51:09
1,226 All your base are belong to ME 253,390 172 - 4 - 0 - 1 - 0 158 2020-03-21 01:50:50
526 Herbie Goes Ballistic 3,500,780 2,254 - 5 - 1 - 1 - 2 2,260 2020-03-21 01:48:58
2,781 A Quick Death 809,220 519 - 4 - 0 - 1 - 1 523 2020-03-21 01:45:57
26 Cest What 2,085,445 1,546 - 9 - 0 - 1 - 1 1,233 2020-03-21 01:44:29
208 Cest What 212,075 136 - 1 - 0 - 0 - 0 137 2020-03-21 01:42:26
30 Cest What 1,576,295 1,546 - 7 - 0 - 3 - 0 725 2020-03-21 01:42:08
1,633 Fushigi Usagi Milk Tei 1,046,345 945 - 8 - 1 - 2 - 2 525 2020-03-21 01:39:42
92 Fushigi Usagi Milk Tei 2,212,625 1,769 - 13 - 2 - 3 - 4 1,237 2020-03-21 01:36:37
1,353 Heterochromia Iridis 1,177,965 756 - 9 - 0 - 1 - 0 760 2020-03-21 01:32:29
2,532 Heterochromia Iridis 323,290 209 - 7 - 1 - 2 - 1 207 2020-03-21 01:31:24
63 Please Don't Remember 1,677,445 1,545 - 12 - 1 - 2 - 2 825 2020-03-21 01:31:01
1,323 Jamais Vu 905,145 640 - 10 - 1 - 2 - 2 551 2020-03-21 01:28:47
1,864 Magical 8bit Tour 1,847,110 1,186 - 15 - 1 - 1 - 3 1,191 2020-03-21 01:27:47
40 Metro 3,024,665 2,450 - 20 - 1 - 1 - 4 1,672 2020-03-21 01:26:02
127 Metro 83,150 52 - 2 - 0 - 0 - 0 54 2020-03-21 01:22:53
745 DISCHARGE RUSH 1,273,255 817 - 8 - 1 - 1 - 2 822 2020-03-21 01:22:13
42 DISCHARGE RUSH 2,165,045 1,874 - 11 - 0 - 2 - 3 1,132 2020-03-21 01:21:15
88 The Bridgeport Run 2,029,695 1,565 - 9 - 2 - 2 - 1 1,167 2020-03-21 01:19:07
101 The Bridgeport Run 131,475 84 - 1 - 0 - 0 - 0 85 2020-03-21 01:16:55
185 Rave 7 1,621,710 1,465 - 25 - 7 - 4 - 3 810 2020-03-21 01:16:03
410 Staple on Smile 1,478,860 1,360 - 43 - 1 - 6 - 8 721 2020-03-21 01:14:09
191 Odd-22 1,397,500 1,781 - 43 - 1 - 9 - 7 409 2020-03-21 01:12:41
35 Cest What 1,691,395 1,545 - 7 - 0 - 4 - 2 841 2020-03-21 01:10:33
22 Cest What [FC] 2,409,135 1,549 - 4 - 3 - 0 - 4 1,556 2020-03-21 01:08:13
14 Cest What [FC] 2,410,425 1,551 - 5 - 0 - 0 - 0 1,556 2020-03-21 01:05:03
19 Cest What 2,086,545 1,550 - 5 - 0 - 1 - 1 1,233 2020-03-21 01:02:59
18 Cest What [FC] 2,410,110 1,550 - 6 - 0 - 0 - 2 1,556 2020-03-21 01:00:45
254 Cest What 9,300 6 - 0 - 0 - 0 - 0 6 2020-03-21 00:58:42
36 Cest What 1,474,445 1,544 - 8 - 1 - 3 - 4 624 2020-03-21 00:58:38
100 J'ai Envie de Plaisir X2 1,588,720 1,641 - 8 - 0 - 3 - 5 685 2020-03-21 00:55:32
21 Koi No Sibou Flag 2,518,870 2,937 - 52 - 2 - 9 - 5 892 2020-03-21 00:52:28
19 Hesperides 2,362,820 3,022 - 29 - 1 - 7 - 7 695 2020-03-21 00:49:08
55 Epidermis v2 5,245,915 3,663 - 18 - 1 - 2 - 6 3,227 2020-03-21 00:45:02
82 _.Pulse 1,736,555 2,226 - 31 - 4 - 11 - 4 507 2020-03-21 00:40:15
129 thinking of you 2,560,945 2,682 - 21 - 0 - 3 - 0 1,081 2020-03-21 00:37:56
12 Miserable Bastard 1,356,775 1,300 - 9 - 0 - 2 - 4 640 2020-03-21 00:34:29
51 Japan Style Breakcore!!! 2,698,250 2,229 - 6 - 0 - 1 - 2 1,471 2020-03-21 00:32:21
170 grind4 665,230 640 - 32 - 0 - 5 - 1 306 2020-03-21 00:29:00
31 Heavenly Castle velier 2,134,915 2,241 - 21 - 2 - 8 - 2 899 2020-03-21 00:28:05
60 Amnehilesie 2,147,510 1,618 - 15 - 1 - 5 - 1 1,255 2020-03-21 00:25:50
109 Amnehilesie 387,905 243 - 8 - 1 - 0 - 0 252 2020-03-21 00:23:36
112 DeVouR 1,778,850 1,462 - 12 - 2 - 2 - 2 972 2020-03-21 00:22:56
139 Rage Template 1,613,370 1,567 - 9 - 1 - 3 - 4 750 2020-03-21 00:19:54
60 Pandora [FC] 1,475,755 948 - 5 - 0 - 0 - 1 953 2020-03-21 00:15:46
53 Our Journey and Epilogue. [FC] 2,404,735 1,549 - 3 - 0 - 0 - 2 1,552 2020-03-21 00:13:15
14 October (Dark Autumn Remix) [FC] 3,676,010 2,370 - 2 - 0 - 0 - 2 2,372 2020-03-21 00:10:39
72 Infinity [cosMo] 3,652,930 3,104 - 11 - 1 - 1 - 2 1,943 2020-03-21 00:06:33
6 Glitchcraft [FC] 3,203,575 2,066 - 1 - 0 - 0 - 0 2,067 2020-03-21 00:02:33
70 Zombie Sunset [FC] 4,306,250 2,770 - 10 - 0 - 0 - 0 2,780 2020-03-20 23:58:15
66 Turbo [RushJet1] 1,288,790 1,315 - 8 - 0 - 2 - 2 564 2020-03-20 23:54:06
7 Reluctantly Accepting Temporary Overexhaustion v2 2,493,870 3,052 - 30 - 0 - 6 - 6 809 2020-03-20 23:51:57
38 Reluctantly Accepting Temporary Overexhaustion v2 32,275 20 - 1 - 0 - 0 - 0 21 2020-03-20 23:48:27
8 !!!Chaos Time!!! [Cut Edition] 1,461,010 1,725 - 23 - 1 - 10 - 1 509 2020-03-20 23:47:59
26 Reluctantly Accepting Temporary Overexhaustion v2 343,960 217 - 6 - 0 - 0 - 2 223 2020-03-19 03:38:14
391 Odd-22 847,055 762 - 14 - 1 - 3 - 1 425 2020-03-19 03:37:49
42 OWA Raged In Vegas (Fuck Bees) 4,174,755 3,003 - 16 - 1 - 1 - 2 2,519 2020-03-19 03:36:09
1,258 OWA Raged In Vegas (Fuck Bees) 362,080 234 - 0 - 0 - 2 - 0 234 2020-03-19 03:32:36
85 Heterochromia Iridis 2,441,900 1,956 - 22 - 0 - 3 - 1 1,361 2020-03-19 03:32:05
354 DISCHARGE RUSH 2,420,135 1,560 - 12 - 3 - 1 - 1 1,559 2020-03-19 03:29:48
2,019 DISCHARGE RUSH 14,840 13 - 0 - 0 - 1 - 0 8 2020-03-19 03:28:08
1,291 DISCHARGE RUSH 350,750 223 - 4 - 0 - 0 - 0 227 2020-03-19 03:28:03
353 DISCHARGE RUSH 2,422,275 1,565 - 10 - 3 - 1 - 4 1,559 2020-03-19 03:27:44
37 DISCHARGE RUSH 2,898,235 1,877 - 8 - 1 - 1 - 3 1,864 2020-03-19 03:25:59
44 DISCHARGE RUSH 1,946,625 1,874 - 9 - 2 - 2 - 2 914 2020-03-19 03:23:54
82 Call me it. (500 Tortures) 1,786,560 2,182 - 35 - 3 - 7 - 8 579 2020-03-19 03:20:08
4,138 Schmollbluk 245,900 157 - 2 - 0 - 0 - 0 159 2020-03-19 03:17:26
103 Schmollbluk [FC] 2,547,000 1,635 - 10 - 0 - 0 - 0 1,645 2020-03-19 03:17:00
27 Cest What 2,007,860 1,546 - 8 - 0 - 2 - 1 1,156 2020-03-19 03:14:11
61 to Luv me I *** for u. 1,863,455 2,329 - 19 - 2 - 9 - 2 580 2020-03-19 03:11:24
331 Stress Free Style 1,623,520 1,316 - 7 - 1 - 4 - 1 899 2020-03-19 03:08:23
444 Stress Free Style 557,465 448 - 5 - 0 - 1 - 0 310 2020-03-19 03:06:51
411 Staple on Smile 1,270,450 1,349 - 43 - 5 - 8 - 6 519 2020-03-19 03:06:02
64 Please Don't Remember 2,121,730 1,359 - 12 - 0 - 0 - 1 1,371 2020-03-19 03:04:33
14 Please Don't Remember 2,975,730 2,277 - 10 - 0 - 1 - 3 1,721 2020-03-19 03:02:39
21 Please Don't Remember 2,381,785 2,261 - 25 - 0 - 2 - 1 1,132 2020-03-19 02:59:42
55 where is my balls 1,962,405 2,420 - 31 - 2 - 7 - 3 625 2020-03-19 02:55:36
2,060 where is my balls 134,335 86 - 0 - 1 - 0 - 1 87 2020-03-19 02:31:10
52 DISCHARGE RUSH 2,755,505 1,867 - 18 - 1 - 1 - 2 1,724 2020-03-19 02:30:43
1,949 DISCHARGE RUSH 29,175 18 - 1 - 0 - 0 - 0 19 2020-03-19 02:28:41
44 DISCHARGE RUSH 2,155,805 1,871 - 15 - 0 - 1 - 3 1,123 2020-03-19 02:28:27
48 DISCHARGE RUSH 2,155,055 1,869 - 16 - 1 - 1 - 2 1,123 2020-03-19 02:26:23
38 DISCHARGE RUSH [FC] 2,921,290 1,875 - 11 - 1 - 0 - 2 1,887 2020-03-19 02:24:16
1,364 Heterochromia Iridis 1,127,825 712 - 20 - 1 - 1 - 1 731 2020-03-19 02:22:07
3,121 Heterochromia Iridis 107,950 68 - 2 - 0 - 0 - 0 70 2020-03-19 02:21:21
28 High-Priestess 2,002,875 1,959 - 34 - 1 - 6 - 6 918 2020-03-19 02:20:00
74 oppIrish (GYPSYCOREremix) 2,914,935 2,978 - 20 - 1 - 8 - 2 1,274 2020-03-19 02:17:19
32 While Sleeping (The Big Sleep) 2,564,085 1,829 - 26 - 1 - 3 - 7 1,552 2020-03-19 02:13:02
307 You're gonna love my nuts 1,995,050 2,304 - 19 - 3 - 8 - 3 725 2020-03-19 02:10:32
61 _.Pulse 2,008,805 2,247 - 16 - 1 - 8 - 1 771 2020-03-19 02:07:03
1,113 Scrap Syndrome 547,855 351 - 3 - 0 - 0 - 1 354 2020-03-19 02:03:26
66 Grist [Part 2] 2,293,895 1,509 - 8 - 1 - 1 - 0 1,462 2020-03-19 02:02:29
8,388 Eclipse (Solar) 1,120,550 718 - 6 - 0 - 0 - 0 724 2020-03-19 02:00:08
13,205 Eclipse (Solar) 495,725 319 - 1 - 0 - 0 - 0 320 2020-03-19 01:59:17
21,493 Eclipse (Solar) 77,225 49 - 1 - 0 - 0 - 0 50 2020-03-19 01:58:51
67 Extratone Pirates (Drunk Optimus Remix) 2,366,235 1,867 - 11 - 0 - 2 - 1 1,337 2020-03-19 01:58:15
16 Please Don't Remember [FC] 3,541,720 2,272 - 15 - 1 - 0 - 3 2,288 2020-03-19 01:55:26
148 Playing Super Mario World While Taking Mushrooms 2,333,025 2,590 - 26 - 5 - 6 - 2 903 2020-03-19 01:52:20
517 Make the Fire Burn 1,363,840 1,046 - 16 - 2 - 3 - 2 785 2020-03-19 01:48:56
939 Make the Fire Burn 405,275 259 - 3 - 0 - 0 - 0 262 2020-03-19 01:47:28
54 cold (Kurorak's Bootleg) 1,870,835 1,711 - 31 - 6 - 3 - 7 922 2020-03-19 01:46:31
87 The Bridgeport Run 2,463,345 1,584 - 10 - 1 - 2 - 2 1,590 2020-03-19 01:43:52
98 The Bridgeport Run 510,160 326 - 3 - 1 - 0 - 1 330 2020-03-19 01:41:35
23 The Bridgeport Run 4,080,580 2,681 - 10 - 0 - 2 - 5 2,604 2020-03-19 01:40:55
146 Winter Wind Etude 2,305,190 2,378 - 21 - 3 - 5 - 5 993 2020-03-19 01:36:05
65 System Doctor 2,980,805 2,064 - 13 - 0 - 3 - 2 1,843 2020-03-19 01:32:15
73 Six Acid Strings 1,243,830 1,176 - 17 - 1 - 2 - 4 593 2020-03-19 01:26:42
131 Six Acid Strings 311,865 217 - 3 - 0 - 1 - 0 192 2020-03-19 01:25:13
19 CirnoRHTL [FC] 3,586,405 2,313 - 1 - 0 - 0 - 1 2,314 2020-03-19 01:16:48
59 All your base are belong to ME 3,476,450 3,553 - 7 - 1 - 2 - 3 1,521 2020-03-19 01:13:43
43 to Luv me I *** for u. 2,726,590 2,450 - 47 - 1 - 9 - 5 1,369 2020-03-19 01:08:36
137 Cest What 1,317,990 864 - 4 - 0 - 1 - 0 842 2020-03-19 01:05:16
2,395 La Campanella 2,261,780 2,030 - 15 - 3 - 3 - 4 1,142 2020-03-19 01:04:02
167 Serious Shit 2,401,490 2,236 - 61 - 9 - 8 - 5 1,157 2020-03-19 01:00:45
1,754 Serious Shit 126,000 78 - 4 - 0 - 0 - 0 82 2020-03-19 00:58:30
21 Heavenly Castle velier 2,793,385 2,261 - 9 - 0 - 2 - 1 1,548 2020-03-19 00:57:51
14 Starbound 10,673,305 9,402 - 14 - 1 - 2 - 4 5,499 2020-03-19 00:51:22
143 Our Journey and Epilogue. 1,766,285 1,537 - 13 - 0 - 2 - 1 918 2020-03-19 00:36:01
24 Gameshow Suitcase 1,231,115 1,509 - 21 - 0 - 5 - 3 397 2020-03-19 00:33:06
130 Extratone Pirates 1,297,850 1,428 - 17 - 1 - 4 - 2 509 2020-03-19 00:31:01
2,575 Schmollbluk 1,124,435 746 - 21 - 0 - 2 - 1 709 2020-03-18 23:27:24
1,826 Magical 8bit Tour 1,753,380 1,220 - 10 - 0 - 1 - 3 1,080 2020-03-18 22:55:03
1,843 Magical 8bit Tour 1,721,950 1,201 - 18 - 2 - 2 - 2 1,057 2020-03-18 22:53:25
1,434 Magical 8bit Tour 1,958,395 1,550 - 6 - 1 - 5 - 13 1,106 2020-03-18 22:47:30
58 Magical 8bit Tour [FC] 2,906,520 1,867 - 10 - 0 - 0 - 4 1,877 2020-03-18 22:44:14
148 Rave 7 1,437,025 1,474 - 20 - 3 - 4 - 5 622 2020-03-18 22:41:30
61 OWA Raged In Vegas (Fuck Bees) 3,049,095 2,994 - 19 - 2 - 6 - 4 1,399 2020-03-18 22:38:50
77 OWA Raged at Kurorak for Making OWA Raged at Skeletor 2,236,545 2,102 - 19 - 4 - 6 - 7 1,077 2020-03-18 22:34:25
95 Staple on Smile 1,731,670 1,924 - 35 - 9 - 11 - 12 667 2020-03-18 22:31:36
124 Heterochromia Iridis 1,748,855 1,937 - 35 - 2 - 7 - 3 676 2020-03-18 22:28:45
98 Heterochromia Iridis 2,425,665 1,950 - 27 - 0 - 4 - 1 1,347 2020-03-18 22:26:38
118 Metro 2,530,025 1,678 - 21 - 2 - 2 - 7 1,602 2020-03-18 22:04:57
127 Metro 190,100 121 - 2 - 0 - 0 - 0 123 2020-03-18 22:02:46
506 Make the Fire Burn 1,350,230 1,180 - 25 - 1 - 2 - 4 695 2020-03-18 22:02:20
132 Revolutionary Etude 2,082,575 1,579 - 15 - 0 - 6 - 7 1,212 2020-03-18 22:00:23
85 Fushigi Usagi Milk Tei 1,901,140 1,770 - 13 - 1 - 3 - 3 925 2020-03-18 21:57:22
36 Rain [YMCK] 3,441,090 3,345 - 7 - 1 - 2 - 1 1,600 2020-03-18 21:54:46
84 Jamais Vu 2,032,220 1,968 - 21 - 1 - 3 - 4 945 2020-03-18 21:49:23
122 _.Pulse 2,501,420 2,135 - 16 - 0 - 7 - 3 1,325 2020-03-18 21:46:38
127 CirnoRHTL 756,400 606 - 5 - 1 - 1 - 1 422 2020-03-18 21:44:30
132 CirnoRHTL 18,085 11 - 0 - 1 - 0 - 1 12 2020-03-18 21:43:50
132 CirnoRHTL 345,100 221 - 2 - 0 - 0 - 0 223 2020-03-18 21:43:47
78 A Dichroic Glass Snafu 1,635,695 1,700 - 24 - 1 - 6 - 5 696 2020-03-18 21:42:33
31 Epileptic Crisis [Oni] 2,411,720 1,709 - 4 - 0 - 1 - 1 1,471 2020-03-18 21:33:15
83 DISCHARGE RUSH 1,833,170 1,850 - 25 - 7 - 5 - 2 810 2020-03-18 21:31:11
14 Please Don't Remember 3,344,275 2,276 - 10 - 1 - 1 - 1 2,090 2020-03-18 21:28:52
55 Tachyon Beam Cannon 1,013,790 1,246 - 40 - 2 - 18 - 2 323 2020-03-18 21:24:38
43 Tachyon Beam Cannon 2,067,260 2,855 - 241 - 19 - 57 - 32 448 2020-03-18 21:22:23
2 Reluctantly Accepting Temporary Overexhaustion v2 4,116,070 3,061 - 25 - 1 - 1 - 5 2,426 2020-03-18 21:18:50
168 Bolt Thrower In A Chinese Restaurant 1,494,565 1,090 - 50 - 5 - 6 - 5 883 2020-03-18 21:15:09
142 Reluctantly Accepting Temporary Overexhaustion 1,259,820 1,519 - 67 - 1 - 13 - 4 410 2020-03-18 21:13:26
3 Reluctantly Accepting Temporary Overexhaustion v2 3,494,040 3,060 - 23 - 1 - 4 - 5 1,806 2020-03-18 21:09:26
7 Reluctantly Accepting Temporary Overexhaustion v2 2,537,625 3,040 - 37 - 0 - 11 - 7 859 2020-03-18 21:04:23
24 Reluctantly Accepting Temporary Overexhaustion v2 36,650 22 - 2 - 0 - 0 - 0 24 2020-03-18 21:00:53
6 Reluctantly Accepting Temporary Overexhaustion v2 2,781,655 3,044 - 37 - 2 - 5 - 14 1,099 2020-03-18 20:59:59
208 Reluctantly Accepting Temporary Overexhaustion 1,226,905 1,472 - 95 - 10 - 23 - 12 398 2020-03-18 20:55:50
12,773 Reluctantly Accepting Temporary Overexhaustion 703,700 547 - 17 - 3 - 3 - 3 399 2020-03-18 20:54:13
9 Find a Way Out [FC] 2,345,595 1,511 - 2 - 1 - 0 - 3 1,514 2020-03-18 19:41:27
1 Cloud Nine [AAA] [FC] 1,382,600 892 - 0 - 0 - 0 - 0 892 2020-03-18 19:36:42
11 Naruto's Ninja Way [FC] 2,684,810 1,729 - 3 - 1 - 0 - 1 1,733 2020-03-18 19:32:40
6 Swamp Thing [FC] 2,850,135 1,838 - 1 - 0 - 0 - 2 1,839 2020-03-18 19:22:26
1 Forbidden Tracks [AAA] [FC] 1,787,150 1,153 - 0 - 0 - 0 - 0 1,153 2020-03-18 19:15:54
11 Ascellity [FC] 2,244,125 1,447 - 1 - 0 - 0 - 0 1,448 2020-03-18 19:11:51
29 Aublia 1,808,655 1,221 - 9 - 0 - 1 - 3 1,135 2020-03-18 19:08:15
22 Landscape 1,124,360 1,115 - 4 - 0 - 3 - 3 511 2020-03-18 19:03:41
16,498 Reluctantly Accepting Temporary Overexhaustion 293,005 227 - 17 - 0 - 8 - 2 166 2020-03-18 14:16:10
18,247 Eclipse (Solar) 190,100 121 - 2 - 0 - 0 - 0 123 2020-03-18 02:01:50
144 You Time 1,446,275 1,318 - 14 - 3 - 2 - 1 718 2020-03-18 02:01:32
33 Verse IV 1,978,390 1,837 - 12 - 0 - 4 - 1 966 2020-03-18 01:59:28
47 Rengoku-Purgatorium- 2,679,515 1,779 - 5 - 0 - 1 - 0 1,700 2020-03-18 01:57:09
60 Extratone Pirates (Drunk Optimus Remix) 2,854,840 1,867 - 12 - 0 - 1 - 0 1,825 2020-03-18 01:54:26
2,045 A Quick Death 1,377,525 930 - 12 - 1 - 1 - 1 863 2020-03-18 01:51:34
510 Punkture 339,905 223 - 2 - 1 - 1 - 2 217 2020-03-18 01:49:52
640 Herbie Goes Ballistic 1,357,825 874 - 0 - 3 - 0 - 2 877 2020-03-18 01:49:08
1,161 J'ai Envie de Plaisir X2 1,301,870 1,337 - 8 - 0 - 2 - 3 565 2020-03-18 01:47:45
2,903 J'ai Envie de Plaisir X2 345,100 221 - 2 - 0 - 0 - 0 223 2020-03-18 01:45:55
44 While Sleeping (The Big Sleep) 1,761,615 1,269 - 18 - 1 - 4 - 5 1,060 2020-03-18 01:45:22
6,305 Almost There [Oni] 765,975 586 - 7 - 0 - 7 - 4 444 2020-03-18 01:43:35
304 oppIrish (GYPSYCOREremix) 1,455,320 991 - 8 - 0 - 3 - 0 909 2020-03-18 01:42:37
34 Stress Free Style 3,068,605 2,883 - 7 - 0 - 3 - 2 1,482 2020-03-18 01:39:43
67 Call me it. (500 Tortures) 2,498,165 2,192 - 28 - 3 - 4 - 3 1,286 2020-03-18 01:36:07
42 Make the Fire Burn 2,239,290 2,639 - 23 - 1 - 8 - 3 784 2020-03-18 01:33:14
1,210 Make the Fire Burn 60,175 38 - 1 - 0 - 0 - 0 39 2020-03-18 01:29:38
151 Eclipse (Solar) 1,435,205 1,440 - 3 - 0 - 2 - 0 643 2020-03-18 01:28:58
531 Make the Fire Burn 1,306,605 945 - 9 - 0 - 2 - 0 785 2020-03-18 01:26:52
31 Make the Fire Burn 3,090,365 2,647 - 21 - 2 - 1 - 3 1,629 2020-03-18 01:24:36
37 Make the Fire Burn 2,305,965 2,647 - 17 - 2 - 5 - 6 847 2020-03-18 01:20:22
57 Odd-22 1,969,465 2,204 - 44 - 3 - 6 - 7 747 2020-03-18 01:16:39
17 Six Acid Strings 1,673,140 1,808 - 18 - 2 - 4 - 4 675 2020-03-18 01:13:55
33 where is my balls 2,229,830 2,436 - 18 - 0 - 6 - 3 887 2020-03-18 01:11:07
75 The Bridgeport Run 3,041,295 2,431 - 17 - 0 - 1 - 6 1,700 2020-03-18 01:07:55
368 Jamais Vu 2,175,055 1,715 - 14 - 5 - 4 - 4 1,229 2020-03-18 01:04:06
80 Jamais Vu 1,951,345 1,971 - 19 - 0 - 3 - 0 863 2020-03-18 01:01:52
1,196 Jamais Vu 1,026,015 958 - 5 - 0 - 4 - 1 499 2020-03-18 00:59:01
96 Jamais Vu 1,751,170 1,964 - 24 - 0 - 5 - 4 666 2020-03-18 00:57:48
2,656 Jamais Vu 29,450 19 - 0 - 0 - 0 - 0 19 2020-03-18 00:55:17
36 to Luv me I *** for u. 2,789,045 2,481 - 22 - 1 - 5 - 3 1,420 2020-03-18 00:54:33
23 While Sleeping (The Big Sleep) 1,809,040 2,037 - 24 - 2 - 6 - 8 684 2020-03-18 00:51:23
73 System Doctor 3,125,810 2,057 - 21 - 1 - 1 - 3 1,989 2020-03-18 00:48:30
4 Finixe [FC] 3,487,225 2,249 - 1 - 0 - 0 - 0 2,250 2020-03-18 00:22:31
129 CirnoRHTL 833,075 535 - 4 - 1 - 1 - 1 538 2020-03-18 00:19:47
19 Please Don't Remember 2,247,860 2,266 - 19 - 1 - 2 - 5 997 2020-03-18 00:16:17
2,091 Fushigi Usagi Milk Tei 743,665 491 - 8 - 1 - 2 - 1 472 2020-03-18 00:13:02
32 OWA Raged In Vegas (Fuck Bees) 3,146,080 3,009 - 10 - 0 - 2 - 0 1,489 2020-03-18 00:02:17
67 Staple on Smile 1,735,010 1,942 - 31 - 1 - 5 - 6 660 2020-03-17 23:58:25
661 Music -corrupted mix- 679,710 531 - 20 - 2 - 3 - 1 383 2020-03-17 23:55:55
67 Heterochromia Iridis 2,594,510 1,967 - 12 - 0 - 2 - 1 1,510 2020-03-17 23:55:06
31 Metro 3,686,180 2,459 - 11 - 1 - 1 - 2 2,331 2020-03-17 23:52:49
62 Epileptic Crisis [Oni] 1,873,345 1,695 - 13 - 4 - 2 - 4 938 2020-03-17 23:49:12
88 Rave 7 1,843,875 1,487 - 12 - 1 - 1 - 1 1,023 2020-03-17 23:46:58
17 Cest What 2,087,095 1,552 - 3 - 0 - 1 - 1 1,233 2020-03-17 23:44:11
219 thinking of you 2,189,840 2,642 - 19 - 1 - 8 - 3 734 2020-03-17 23:41:46
13 Miserable Bastard 1,767,995 1,299 - 9 - 0 - 3 - 0 1,052 2020-03-17 23:38:47
79 grind4 [FC] 1,046,890 669 - 7 - 1 - 0 - 2 677 2020-03-17 23:36:48
29 ephemera [FC] 1,783,140 1,144 - 7 - 1 - 0 - 2 1,152 2020-03-17 23:35:21
8 Amnehilesie 2,461,625 1,923 - 7 - 0 - 3 - 1 1,403 2020-03-17 23:32:57
1,246 WANDERLUST 322,315 204 - 4 - 1 - 0 - 2 209 2020-03-17 23:30:12
24 Re: End of a Dream [FC] 2,748,600 1,770 - 4 - 0 - 0 - 0 1,774 2020-03-17 23:29:19
39 Dysnomia 1,747,800 1,377 - 10 - 2 - 1 - 5 988 2020-03-17 23:26:38
63 Chik Habit [FC] 2,435,105 1,562 - 11 - 0 - 0 - 1 1,573 2020-03-17 23:24:23
34 Aragami 2,157,420 1,504 - 2 - 0 - 1 - 1 1,330 2020-03-17 23:21:31
159 Sayonara Cosmonaut 919,635 632 - 1 - 0 - 4 - 0 573 2020-03-17 23:18:55
254 For UltraPlayers 1,838,620 1,614 - 12 - 0 - 14 - 2 952 2020-03-17 23:17:49
1,121 For UltraPlayers 233,500 149 - 2 - 0 - 0 - 0 151 2020-03-17 23:15:53
109 Dishevel [FC] 2,370,985 1,519 - 13 - 0 - 0 - 2 1,532 2020-03-17 23:15:27
197 Hardkore Atomic 1,123,995 1,025 - 7 - 0 - 2 - 3 559 2020-03-17 23:13:08
35 grind2 v2 [FC] 1,471,950 948 - 2 - 0 - 0 - 0 950 2020-03-17 23:11:07
15 Giselle 2,138,580 1,560 - 8 - 0 - 2 - 0 1,279 2020-03-17 23:09:42
46 Aggressor 2,905,070 2,906 - 12 - 2 - 2 - 1 1,304 2020-03-17 23:06:44
689 grind4 386,455 237 - 15 - 0 - 0 - 1 252 2020-03-14 22:29:57
151 grind4 737,065 647 - 26 - 1 - 3 - 3 375 2020-03-14 22:29:35
102 Breakbeat Acid 1,641,860 1,048 - 14 - 0 - 1 - 4 1,062 2020-03-14 22:28:32
23 LeaF Style Super Shredder 3 [FC] 2,358,640 1,502 - 24 - 0 - 0 - 3 1,526 2020-03-08 03:52:31
67 Title (Double Dragon) 3,899,730 2,798 - 8 - 0 - 1 - 3 2,359 2020-03-08 03:49:52
35 Credits [Heavy] [FC] 1,346,830 864 - 6 - 0 - 0 - 1 870 2020-03-08 03:45:38
24 Alien Lair 2,089,050 2,191 - 13 - 1 - 5 - 4 882 2020-03-08 03:44:07
1 Rabbit And Warlord [AAA] [FC] 1,793,350 1,157 - 0 - 0 - 0 - 0 1,157 2020-03-08 03:35:50
383 Call me it. (500 Tortures) 1,346,070 1,828 - 43 - 1 - 13 - 9 333 2020-03-08 03:33:14
63 Punkture 1,340,635 1,309 - 14 - 3 - 7 - 8 619 2020-03-08 03:30:42
171 Extratone Pirates 1,368,250 1,418 - 22 - 4 - 6 - 3 584 2020-03-08 03:28:47
621 Staple on Smile 1,085,790 941 - 23 - 7 - 1 - 8 562 2020-03-07 16:16:40
393 Extratone Pirates (Drunk Optimus Remix) 2,635,085 1,703 - 18 - 3 - 2 - 3 1,694 2020-03-07 16:15:33
2,226 Extratone Pirates (Drunk Optimus Remix) 157,025 102 - 1 - 0 - 1 - 2 101 2020-03-07 16:13:30
2,584 Extratone Pirates (Drunk Optimus Remix) 24,780 16 - 0 - 0 - 0 - 1 16 2020-03-07 16:13:16
493 Serious Shit 1,824,995 1,821 - 31 - 4 - 4 - 3 816 2020-03-07 16:13:03
74 CirnoRHTL 2,649,075 2,300 - 11 - 0 - 3 - 1 1,382 2020-03-07 16:10:53
701 thinking of you 2,076,475 1,358 - 7 - 4 - 5 - 1 1,329 2020-03-07 16:08:03
112 Stinger 2,799,290 2,011 - 13 - 1 - 1 - 4 1,690 2020-03-07 16:06:21
10 Miserable Bastard [FC] 2,028,730 1,299 - 12 - 0 - 0 - 1 1,311 2020-03-07 16:03:53
545 Rain [YMCK] 2,613,685 1,838 - 12 - 3 - 2 - 3 1,600 2020-03-07 16:02:12
771 Rain [YMCK] 647,625 417 - 1 - 0 - 0 - 0 418 2020-03-07 15:59:32
333 grind4 799,535 539 - 16 - 1 - 1 - 3 499 2020-03-07 15:57:37
120 grind4 877,290 659 - 12 - 4 - 2 - 3 512 2020-03-07 15:56:59
20 to Luv me I *** for u. 3,306,870 2,532 - 18 - 0 - 2 - 3 1,910 2020-03-07 15:56:04
2,383 La Campanella 2,691,990 2,035 - 17 - 1 - 3 - 3 1,569 2020-03-07 15:52:28
21 Cest What 2,085,940 1,550 - 4 - 0 - 2 - 2 1,233 2020-03-07 15:49:25
65 Stress Free Style 2,667,875 2,868 - 21 - 0 - 4 - 3 1,086 2020-03-07 15:46:36
18 Out With Your Clique 1,398,795 1,026 - 10 - 1 - 1 - 0 832 2020-03-07 15:42:59
80 /mu/tant corecore [FC] 783,475 503 - 3 - 0 - 0 - 0 506 2020-03-07 15:41:12
128 Sleep [Part 1] [FC] 3,210,755 2,069 - 3 - 0 - 0 - 1 2,072 2020-03-07 15:39:59
47 Queen of Bootlegs [FC] 2,532,680 1,634 - 0 - 0 - 0 - 1 1,634 2020-03-07 15:36:55
56 Heavenly Castle velier 2,693,425 2,075 - 22 - 1 - 3 - 0 1,547 2020-03-06 02:45:12
34 Punkture 1,584,330 1,322 - 8 - 0 - 3 - 2 856 2020-03-06 02:43:03
59 Please Don't Remember 1,659,430 1,539 - 19 - 3 - 1 - 5 808 2020-03-06 02:41:03
97 Please Don't Remember 215,175 138 - 1 - 0 - 0 - 0 139 2020-03-06 02:39:05
22 Finixe 2,225,625 2,227 - 17 - 0 - 6 - 2 998 2020-03-06 02:38:33
10 Miserable Bastard 1,312,820 1,302 - 6 - 0 - 3 - 0 596 2020-03-06 02:35:46
37 CirnoRHTL [FC] 3,585,050 2,308 - 6 - 0 - 0 - 0 2,314 2020-03-06 02:33:10
62 Eclipse (Solar) [FC] 2,239,455 1,444 - 1 - 0 - 0 - 1 1,445 2020-03-06 02:26:16
21,489 Eclipse (Solar) 77,225 49 - 1 - 0 - 0 - 0 50 2020-03-06 02:24:18
169 A Quick Death 1,568,155 1,623 - 21 - 0 - 7 - 5 672 2020-03-06 02:24:02
179 Rave 7 1,552,840 1,462 - 34 - 0 - 5 - 3 741 2020-03-06 02:21:21
821 Rave 7 1,074,850 1,170 - 10 - 2 - 21 - 0 435 2020-03-06 02:19:08
75 Epileptic Crisis [Oni] 1,609,670 1,689 - 16 - 6 - 3 - 4 677 2020-03-06 02:17:33
9 Tool-Assisted Speedcore (TQBF Frame Advance RMX) 2,698,300 3,426 - 103 - 3 - 17 - 11 791 2020-03-06 02:15:18
75 OWA Raged In Vegas (Fuck Bees) 2,352,095 2,985 - 25 - 0 - 11 - 6 707 2020-03-06 02:10:53
40 Metro 2,578,975 2,453 - 15 - 0 - 4 - 3 1,227 2020-03-06 02:07:12
126 Metro 247,430 158 - 2 - 0 - 0 - 1 160 2020-03-06 02:03:58
148 You Time 1,825,720 1,314 - 19 - 3 - 1 - 3 1,098 2020-03-06 02:03:27
92 _.Pulse 1,862,965 2,214 - 38 - 3 - 17 - 4 640 2020-03-06 02:01:15
120 Extratone Pirates 1,477,185 1,430 - 17 - 0 - 3 - 3 687 2020-03-06 01:58:25
5,610 Eclipse (Solar) 1,364,330 872 - 10 - 0 - 0 - 1 882 2020-02-24 23:26:01
19,858 Eclipse (Solar) 146,425 92 - 3 - 0 - 0 - 0 95 2020-02-24 23:24:59
21,690 Eclipse (Solar) 72,575 46 - 1 - 0 - 0 - 0 47 2020-02-24 23:24:50
19,783 Eclipse (Solar) 149,230 93 - 4 - 0 - 0 - 1 97 2020-02-24 23:24:45
793 Stinger 696,720 658 - 4 - 0 - 4 - 2 335 2020-02-24 23:24:31
1,159 Stinger 9,025 5 - 1 - 0 - 0 - 0 6 2020-02-24 23:23:39
931 Stinger 521,965 340 - 1 - 0 - 1 - 0 335 2020-02-24 23:23:35
436 Staple on Smile 1,290,435 1,301 - 44 - 3 - 4 - 7 564 2020-02-24 23:22:54
108 System Doctor 2,402,590 2,052 - 22 - 0 - 6 - 10 1,270 2020-02-24 23:21:27
98 Jamais Vu 1,765,050 1,960 - 28 - 0 - 5 - 5 681 2020-02-24 23:18:05
53 Metro 2,677,245 2,440 - 26 - 3 - 3 - 7 1,329 2020-02-24 23:15:28
76 Epileptic Crisis [Oni] 1,571,105 1,688 - 19 - 2 - 5 - 4 639 2020-02-24 23:12:05
1,585 Epileptic Crisis [Oni] 92,725 59 - 1 - 0 - 0 - 0 60 2020-02-24 23:10:07
59 DISCHARGE RUSH 2,454,645 1,861 - 22 - 1 - 3 - 4 1,426 2020-02-24 23:09:50
60 DISCHARGE RUSH 1,838,465 1,858 - 26 - 1 - 2 - 1 810 2020-02-24 23:07:43
177 Rave 7 1,462,240 1,463 - 32 - 2 - 4 - 4 650 2020-02-24 23:05:35
97 Heterochromia Iridis 1,818,225 1,948 - 31 - 0 - 2 - 4 739 2020-02-24 23:03:37
38 to Luv me I *** for u. 2,601,650 2,457 - 40 - 4 - 6 - 3 1,241 2020-02-24 23:01:24
72 Please Don't Remember 869,685 717 - 6 - 1 - 1 - 3 474 2020-02-24 22:58:07
81 CirnoRHTL 3,075,540 2,299 - 11 - 1 - 3 - 3 1,809 2020-02-24 22:56:55
132 CirnoRHTL 43,125 27 - 1 - 0 - 0 - 0 28 2020-02-24 22:54:16
151 grind4 960,995 648 - 25 - 0 - 4 - 2 599 2020-02-24 22:53:39
143 grind4 892,640 654 - 16 - 2 - 5 - 1 530 2020-02-24 22:52:55
108 Nomina Nuda Tenemus [Heavy] [FC] 1,529,300 985 - 2 - 0 - 0 - 0 987 2020-02-24 22:52:04
57 Please Don't Remember 1,259,370 1,429 - 28 - 0 - 4 - 2 467 2020-02-23 01:27:45
84 Please Don't Remember 204,115 133 - 1 - 0 - 1 - 0 131 2020-02-23 01:25:44
17 Finixe 2,224,305 2,228 - 16 - 1 - 5 - 0 996 2020-02-23 01:25:02
95 _.Pulse 1,986,675 2,204 - 48 - 7 - 13 - 4 765 2020-02-23 01:22:20
50 CirnoRHTL 3,410,130 2,307 - 6 - 0 - 1 - 3 2,140 2020-02-23 01:20:00
54 Punkture 1,257,695 1,309 - 17 - 4 - 3 - 11 534 2020-02-23 01:17:05
132 For UltraPlayers 2,375,975 1,637 - 13 - 0 - 3 - 1 1,473 2020-02-23 01:15:10
95 Shippuujinrai 2,124,925 1,517 - 7 - 0 - 1 - 2 1,289 2020-02-23 01:12:56
118 Unicron Barbeque [FC] 3,030,300 1,947 - 9 - 1 - 0 - 4 1,957 2020-02-23 01:10:50
12 The Last Step 1,884,325 1,644 - 11 - 0 - 6 - 2 979 2020-02-23 01:08:03
210 Miss Candy on TV [FC] 1,470,865 945 - 4 - 1 - 0 - 2 950 2020-02-23 01:05:27
185 Puzzle [FC] 1,310,750 844 - 2 - 0 - 0 - 0 846 2020-02-23 01:03:40
11,624 do i smile? 13,950 9 - 0 - 0 - 0 - 0 9 2020-02-18 23:05:05
175 do i smile? 1,876,440 2,052 - 44 - 8 - 8 - 11 738 2020-02-18 23:04:52
7,775 do i smile? 356,580 222 - 14 - 0 - 1 - 3 231 2020-02-18 23:01:47
192 Rave 7 1,326,355 1,462 - 29 - 4 - 6 - 4 516 2020-02-18 23:00:35
26 Six Acid Strings 1,613,585 1,782 - 44 - 1 - 5 - 6 623 2020-02-18 22:58:47
64 Punkture 1,153,780 1,304 - 21 - 1 - 7 - 4 433 2020-02-18 22:56:16
604 Punkture 34,100 22 - 0 - 0 - 0 - 0 22 2020-02-18 22:54:27
10 Finixe 2,485,540 2,240 - 8 - 0 - 2 - 2 1,252 2020-02-18 22:54:14
39 Gate Openerz 2,839,005 2,212 - 5 - 0 - 3 - 2 1,622 2020-02-18 22:51:00
207 Punkture 927,510 1,147 - 42 - 0 - 9 - 5 288 2020-02-18 02:20:14
391 Punkture 680,860 566 - 10 - 2 - 4 - 3 368 2020-02-18 02:18:30
7,771 do i smile? 286,640 223 - 12 - 0 - 1 - 0 161 2020-02-17 19:47:56
186 do i smile? 1,706,745 2,050 - 44 - 5 - 13 - 5 571 2020-02-17 19:46:17
8,363 do i smile? 269,675 166 - 5 - 6 - 1 - 1 177 2020-02-17 19:42:59
11,651 do i smile? 9,300 6 - 0 - 0 - 0 - 0 6 2020-02-17 19:42:08
8,997 do i smile? 172,500 108 - 4 - 0 - 0 - 0 112 2020-02-17 19:41:53
11,704 do i smile? 4,375 2 - 1 - 0 - 0 - 0 3 2020-02-17 19:41:13
4,675 do i smile? 600,315 523 - 7 - 0 - 4 - 1 312 2020-02-17 19:40:56
166 do i smile? 1,595,735 2,056 - 42 - 5 - 9 - 5 456 2020-02-17 19:39:49
127 do i smile? 1,979,720 2,066 - 37 - 3 - 6 - 3 835 2020-02-17 19:36:38
127 do i smile? 1,947,370 2,066 - 37 - 5 - 4 - 7 802 2020-02-17 19:33:32
172 do i smile? 2,061,830 2,046 - 57 - 5 - 4 - 9 922 2020-02-17 19:30:10
219 do i smile? 2,051,290 2,032 - 64 - 6 - 10 - 7 919 2020-02-17 19:26:50
172 BEER [Is-m] 1,260,775 1,146 - 21 - 0 - 4 - 3 626 2020-02-17 19:23:37
120 2-9 1,435,315 1,276 - 3 - 0 - 1 - 0 733 2020-02-17 19:21:46
424 Reality 1,092,590 916 - 4 - 0 - 1 - 0 588 2020-02-17 19:19:58
18 Autoprocess 1,134,040 875 - 4 - 0 - 1 - 0 652 2020-02-17 19:18:31
906 do i smile? 1,503,260 1,824 - 35 - 3 - 5 - 9 492 2020-02-17 15:55:41
100 do i smile? 2,033,310 2,075 - 33 - 1 - 3 - 7 884 2020-02-17 15:51:28
98 do i smile? 2,098,990 2,079 - 27 - 3 - 3 - 6 949 2020-02-17 15:48:14
2,616 do i smile? 1,989,655 1,310 - 23 - 4 - 1 - 4 1,263 2020-02-17 15:44:51
105 do i smile? 2,008,490 2,074 - 33 - 1 - 4 - 5 860 2020-02-17 15:42:14
151 do i smile? 2,394,170 2,055 - 51 - 3 - 3 - 17 1,251 2020-02-17 15:39:05
224 Extratone Pirates 1,249,410 1,394 - 43 - 3 - 10 - 9 474 2020-02-17 15:35:45
186 Fractured Sunshine 1,045,640 869 - 21 - 5 - 4 - 6 563 2020-02-17 15:33:56
264 Fractured Sunshine 24,140 19 - 0 - 0 - 1 - 0 14 2020-02-17 15:32:44
185 Phi-dentity Crisis 2,290,660 2,498 - 33 - 1 - 7 - 10 910 2020-02-17 15:32:24
966 Phi-dentity Crisis 665,600 420 - 9 - 3 - 0 - 2 432 2020-02-17 15:28:32
109 Firstaidvision 909,040 985 - 18 - 0 - 2 - 2 363 2020-02-17 15:26:52
211 The Candy Corn Witch 1,245,865 1,173 - 5 - 0 - 2 - 2 600 2020-02-16 03:55:02
275 The Candy Corn Witch 437,860 281 - 1 - 1 - 0 - 1 283 2020-02-16 03:53:31
79 MANIERA 2,497,545 1,767 - 5 - 0 - 2 - 3 1,525 2020-02-16 03:52:41
1,778 MANIERA 209,790 141 - 2 - 0 - 1 - 0 132 2020-02-16 03:50:40
1,827 MANIERA 175,490 116 - 0 - 0 - 1 - 0 112 2020-02-16 03:50:08
1,687 MANIERA 314,355 202 - 1 - 0 - 0 - 1 203 2020-02-16 03:49:58
1,411 MANIERA 794,765 515 - 3 - 0 - 1 - 0 511 2020-02-16 03:49:27
1,838 MANIERA 166,980 112 - 0 - 0 - 2 - 0 106 2020-02-16 03:48:40
1,433 MANIERA 735,425 472 - 3 - 0 - 0 - 0 475 2020-02-16 03:48:30
763 Fanteucpx[zv 549,370 465 - 2 - 0 - 3 - 0 294 2020-02-16 03:47:52
893 Fanteucpx[zv 286,565 192 - 1 - 0 - 1 - 0 181 2020-02-16 03:47:14
37 Head Banger [FC] 1,904,380 1,227 - 2 - 0 - 0 - 1 1,229 2020-02-16 03:46:21
73 Head Banger 1,408,720 1,220 - 6 - 0 - 3 - 0 737 2020-02-16 03:44:47
844 thinking of you 1,101,470 712 - 8 - 0 - 1 - 1 708 2020-02-16 03:38:21
665 Japan Style Breakcore!!! 1,592,575 1,492 - 8 - 1 - 4 - 2 771 2020-02-16 03:35:58
787 Japan Style Breakcore!!! 1,021,450 914 - 11 - 1 - 1 - 1 516 2020-02-16 03:33:47
581 Stinger 1,435,435 1,435 - 10 - 1 - 2 - 0 644 2020-02-16 03:31:17
345 grind4 564,325 517 - 34 - 5 - 5 - 5 272 2020-02-16 03:28:50
715 grind4 258,210 166 - 9 - 1 - 2 - 0 165 2020-02-16 03:28:17
158 grind4 589,075 646 - 24 - 1 - 6 - 1 229 2020-02-16 03:28:05
145 grind4 671,020 653 - 17 - 1 - 6 - 0 309 2020-02-16 03:27:21
351 grind4 657,875 503 - 44 - 1 - 3 - 0 370 2020-02-16 03:26:32
170 grind4 565,640 638 - 34 - 0 - 5 - 3 207 2020-02-16 03:25:59
170 grind4 552,550 643 - 24 - 4 - 6 - 3 194 2020-02-16 03:25:12
170 grind4 561,220 641 - 27 - 3 - 6 - 3 203 2020-02-16 03:24:27
764 grind4 156,465 105 - 11 - 0 - 1 - 0 96 2020-02-16 03:23:40
70 where is my balls 1,950,995 2,411 - 37 - 2 - 10 - 12 618 2020-02-16 03:11:53
67 where is my balls 2,100,805 2,409 - 43 - 2 - 6 - 11 766 2020-02-16 03:08:58
161 Rave 7 1,207,035 1,470 - 23 - 2 - 6 - 2 394 2020-02-16 03:05:35
1,148 Scrap Syndrome 327,340 282 - 2 - 0 - 1 - 0 172 2020-02-16 03:03:31
6,171 Almost There [Oni] 718,935 598 - 13 - 0 - 8 - 3 389 2020-02-16 03:02:37
50 to Luv me I *** for u. 2,791,895 2,417 - 46 - 3 - 7 - 5 1,452 2020-02-16 03:00:58
1,825 Magical 8bit Tour 1,777,990 1,212 - 16 - 0 - 3 - 4 1,108 2020-02-16 02:57:17
3,460 Magical 8bit Tour 215,175 138 - 1 - 0 - 0 - 0 139 2020-02-16 02:55:36
1,824 Magical 8bit Tour 1,594,405 1,217 - 11 - 0 - 3 - 2 923 2020-02-16 02:54:50
59 Magical 8bit Tour [FC] 2,906,325 1,866 - 11 - 0 - 0 - 0 1,877 2020-02-16 02:52:10
3,663 Magical 8bit Tour 174,875 112 - 1 - 0 - 0 - 0 113 2020-02-16 02:49:38
2,908 Magical 8bit Tour 453,360 291 - 1 - 1 - 0 - 1 293 2020-02-16 02:49:23
1,829 Magical 8bit Tour 1,689,640 1,212 - 13 - 1 - 5 - 2 1,021 2020-02-16 02:48:57
71 Magical 8bit Tour 1,949,100 1,868 - 6 - 0 - 3 - 1 921 2020-02-16 02:47:00
1,857 Magical 8bit Tour 1,304,415 1,191 - 11 - 0 - 2 - 2 647 2020-02-16 02:44:28
1,270 J'ai Envie de Plaisir X2 2,011,715 1,289 - 10 - 1 - 0 - 2 1,300 2020-02-16 02:42:38
18 Cest What [FC] 2,409,580 1,548 - 8 - 0 - 0 - 1 1,556 2020-02-16 02:40:38
527 Rengoku-Purgatorium- 2,123,270 1,387 - 10 - 0 - 1 - 1 1,358 2020-02-16 02:38:27
120 Epidermis v2 4,628,200 3,215 - 17 - 1 - 2 - 8 2,856 2020-02-16 02:36:07
35 Rain [YMCK] 3,152,000 3,346 - 6 - 0 - 3 - 1 1,311 2020-02-16 02:31:58
48 The Ordeal Becomes Great 3,997,530 3,015 - 6 - 0 - 1 - 3 2,338 2020-02-16 02:26:33
8,748 Eclipse (Solar) 1,023,480 682 - 18 - 2 - 2 - 3 644 2020-02-16 02:22:13
232 Eclipse (Solar) 1,600,315 1,431 - 13 - 0 - 1 - 0 810 2020-02-16 02:21:23
20,901 Eclipse (Solar) 93,990 66 - 0 - 0 - 1 - 0 58 2020-02-16 02:19:21
21,477 Eclipse (Solar) 77,225 49 - 1 - 0 - 0 - 0 50 2020-02-16 02:19:13
1,564 A Quick Death 1,561,555 1,078 - 12 - 1 - 2 - 4 966 2020-02-16 02:18:56
93 Heavenly Castle velier 1,529,090 984 - 8 - 0 - 1 - 0 986 2020-02-16 02:17:07
86 Finixe 1,642,845 1,746 - 13 - 0 - 13 - 0 683 2020-02-16 02:15:57
132 CirnoRHTL 297,235 193 - 7 - 2 - 3 - 1 190 2020-02-16 02:13:46
329 Stress Free Style 1,224,415 1,305 - 17 - 0 - 3 - 4 503 2020-02-16 02:13:25
792 Epileptic Crisis [Oni] 723,950 461 - 5 - 3 - 0 - 7 469 2020-02-16 02:11:30
783 Epileptic Crisis [Oni] 585,635 472 - 1 - 0 - 4 - 0 327 2020-02-16 02:10:52
52 OWA Raged In Vegas (Fuck Bees) 3,249,440 2,997 - 21 - 1 - 2 - 6 1,596 2020-02-16 02:10:10
1,143 OWA Raged In Vegas (Fuck Bees) 537,565 352 - 1 - 0 - 1 - 0 344 2020-02-16 02:06:37
33 VIS::CRACKED 1,946,910 2,236 - 57 - 1 - 8 - 7 704 2020-02-16 02:04:54
99 System Doctor 2,195,010 2,054 - 20 - 2 - 4 - 3 1,061 2020-02-16 02:02:00
107 System Doctor 2,500,940 2,052 - 20 - 4 - 4 - 7 1,368 2020-02-16 01:58:50
51 System Doctor 2,463,445 2,066 - 13 - 0 - 1 - 6 1,324 2020-02-16 01:55:39
51 DISCHARGE RUSH 2,001,010 1,866 - 18 - 2 - 1 - 2 970 2020-02-16 01:52:21
81 System Doctor 2,205,335 2,057 - 19 - 0 - 4 - 0 1,070 2020-02-16 01:50:12
68 Milky Blue [FC] 4,613,990 2,972 - 5 - 1 - 0 - 2 2,978 2020-02-16 01:45:06
862 Azul (Remix) 1,380,600 890 - 6 - 2 - 2 - 2 890 2020-02-16 01:40:12
1,671 Heterochromia Iridis 692,680 462 - 9 - 1 - 3 - 1 437 2020-02-15 20:58:01
638 All your base are belong to ME 1,927,055 1,409 - 9 - 0 - 1 - 3 1,150 2020-02-15 20:57:24
979 All your base are belong to ME 513,965 339 - 14 - 1 - 1 - 4 324 2020-02-15 20:55:43
645 Stinger 1,235,445 1,280 - 6 - 1 - 4 - 1 531 2020-02-15 20:55:07
25 Cest What [FC] 2,408,735 1,545 - 11 - 0 - 0 - 2 1,556 2020-02-15 20:53:07
33 Cest What 1,622,710 1,546 - 6 - 0 - 4 - 0 772 2020-02-15 20:51:01
153 Cest What 835,965 539 - 3 - 0 - 1 - 0 539 2020-02-15 20:48:58
213 Cest What 98,925 63 - 1 - 0 - 0 - 0 64 2020-02-15 20:48:10
27 Cest What 1,634,875 1,544 - 11 - 0 - 1 - 2 783 2020-02-15 20:47:58
634 Epileptic Crisis [Oni] 906,290 845 - 8 - 0 - 2 - 2 440 2020-02-15 20:45:47
1,336 Jamais Vu 730,695 590 - 15 - 0 - 3 - 0 403 2020-02-15 20:44:47
47 Metro 2,830,390 2,444 - 25 - 1 - 2 - 6 1,480 2020-02-15 20:43:17
126 Metro 197,870 127 - 1 - 1 - 1 - 0 128 2020-02-15 20:40:07
121 System Doctor 2,433,855 2,040 - 37 - 2 - 1 - 6 1,302 2020-02-15 20:39:17
1,950 Fushigi Usagi Milk Tei 894,390 590 - 9 - 1 - 2 - 1 568 2020-02-15 20:35:57
4,031 Fushigi Usagi Milk Tei 29,175 18 - 1 - 0 - 0 - 0 19 2020-02-15 20:35:04
50 Punkture 1,155,960 1,316 - 9 - 1 - 7 - 10 432 2020-02-15 20:34:41
583 Punkture 111,840 73 - 0 - 0 - 1 - 0 72 2020-02-15 20:32:54
407 Staple on Smile 1,416,660 1,362 - 31 - 9 - 4 - 11 660 2020-02-15 20:32:22
78 Heterochromia Iridis 1,977,310 1,962 - 15 - 1 - 3 - 2 895 2020-02-15 20:30:50
37 While Sleeping (The Big Sleep) 1,541,870 1,380 - 22 - 4 - 4 - 8 778 2020-02-15 20:28:26
10 Please Don't Remember 2,656,495 2,280 - 7 - 0 - 1 - 6 1,401 2020-02-15 20:25:47
2,944 Schmollbluk 789,320 529 - 6 - 2 - 1 - 4 497 2020-02-15 20:22:45
1,029 Serious Shit 990,670 766 - 12 - 0 - 3 - 0 567 2020-02-15 20:21:38
22 Herbie Goes Ballistic [FC] 6,248,225 4,027 - 5 - 0 - 0 - 0 4,032 2020-02-15 20:17:22
68 CirnoRHTL 2,862,150 2,302 - 10 - 0 - 2 - 4 1,594 2020-02-15 20:11:59
739 Stress Free Style 15,225 9 - 1 - 0 - 0 - 0 10 2020-02-15 20:08:42
683 Stress Free Style 99,795 67 - 1 - 0 - 1 - 1 63 2020-02-15 20:08:38
254 oppIrish (GYPSYCOREremix) 2,705,455 1,897 - 25 - 4 - 3 - 3 1,656 2020-02-15 20:08:28
10 Finixe 3,235,315 2,238 - 10 - 1 - 1 - 4 2,002 2020-02-15 20:06:17
152 Finixe 178,425 111 - 5 - 0 - 0 - 0 116 2020-02-15 20:03:34
60 Stress Free Style 2,907,150 2,872 - 15 - 1 - 5 - 4 1,325 2020-02-15 20:03:10
118 Rave 7 1,390,100 1,477 - 19 - 3 - 2 - 1 573 2020-02-15 19:59:25
53 Epileptic Crisis [Oni] 1,880,270 1,700 - 9 - 1 - 4 - 1 944 2020-02-15 19:57:37
150 Eclipse (Solar) 1,596,515 1,439 - 5 - 0 - 1 - 0 804 2020-02-15 19:55:27
21,477 Eclipse (Solar) 77,225 49 - 1 - 0 - 0 - 0 50 2020-02-15 19:53:36
109 grind4 692,320 661 - 12 - 2 - 2 - 1 326 2020-02-15 19:53:15
26 Chik Habit v2 2,795,320 2,179 - 8 - 0 - 1 - 1 1,595 2020-02-15 19:52:17
121 Extratone Pirates 1,473,895 1,431 - 15 - 0 - 4 - 2 684 2020-02-15 19:49:32
95 Heavenly Castle velier 1,251,770 822 - 7 - 1 - 1 - 0 798 2020-02-13 23:30:11
132 CirnoRHTL 370,900 236 - 4 - 0 - 0 - 0 240 2020-02-13 23:29:12
132 CirnoRHTL 350,025 225 - 1 - 0 - 0 - 0 226 2020-02-13 23:28:56
132 CirnoRHTL 371,505 239 - 0 - 1 - 0 - 0 240 2020-02-13 23:28:41
131 CirnoRHTL 695,950 449 - 0 - 0 - 0 - 0 449 2020-02-13 23:28:19
132 CirnoRHTL 473,750 304 - 2 - 0 - 0 - 0 306 2020-02-13 23:27:49
737 thinking of you 1,389,210 1,082 - 10 - 0 - 2 - 1 792 2020-02-13 23:27:24
1,455 thinking of you 3,080 2 - 0 - 0 - 0 - 1 2 2020-02-13 23:25:01
520 All your base are belong to ME 2,393,380 2,270 - 8 - 0 - 4 - 4 1,144 2020-02-13 23:24:32
5,795 Eclipse (Solar) 1,146,955 862 - 12 - 3 - 5 - 3 671 2020-02-13 23:21:38
21,482 Eclipse (Solar) 77,205 49 - 1 - 0 - 0 - 1 50 2020-02-13 23:19:54
19,826 Eclipse (Solar) 146,700 93 - 2 - 0 - 0 - 0 95 2020-02-13 23:19:49
5,747 Eclipse (Solar) 1,361,095 858 - 22 - 3 - 0 - 1 883 2020-02-13 23:19:42
21,505 Eclipse (Solar) 76,930 48 - 2 - 0 - 0 - 1 50 2020-02-13 23:18:37
21,482 Eclipse (Solar) 77,205 49 - 1 - 0 - 0 - 1 50 2020-02-13 23:18:10
174 Violent Arcade 1,150,500 1,080 - 34 - 2 - 6 - 5 549 2020-02-13 23:17:47
148 Odd-22 1,654,705 1,980 - 60 - 3 - 12 - 12 553 2020-02-13 23:15:30
30 Symphonies Of Suckness 2,435,920 2,557 - 36 - 4 - 11 - 7 1,023 2020-02-13 23:13:08
51 Epileptic Crisis [Oni] 1,804,675 1,698 - 15 - 0 - 1 - 2 867 2020-02-13 23:09:14
62 OWA Raged at Kurorak for Making OWA Raged at Skeletor 2,147,300 2,105 - 21 - 1 - 4 - 2 985 2020-02-13 23:06:10
260 Rain [YMCK] 4,818,210 3,185 - 4 - 0 - 2 - 1 3,066 2020-02-13 23:03:07
556 Rain [YMCK] 2,676,180 1,720 - 8 - 0 - 0 - 1 1,728 2020-02-13 22:58:42
444 Punkture 542,080 354 - 0 - 0 - 2 - 0 348 2020-02-13 22:56:03
796 Japan Style Breakcore!!! 936,570 777 - 2 - 0 - 1 - 1 509 2020-02-13 22:54:48
871 Japan Style Breakcore!!! 807,010 542 - 2 - 0 - 2 - 1 509 2020-02-13 22:53:02
25 Stinger [FC] 3,139,750 2,024 - 2 - 0 - 0 - 0 2,026 2020-02-13 22:46:53
301 Stress Free Style 1,761,460 1,756 - 12 - 0 - 2 - 1 793 2020-02-13 22:44:26
352 Stress Free Style 1,430,205 923 - 7 - 0 - 1 - 3 921 2020-02-13 22:41:16
59 Please Don't Remember 1,538,345 988 - 8 - 1 - 1 - 0 993 2020-02-13 22:39:44
106 Finixe 1,646,425 1,180 - 5 - 0 - 3 - 1 997 2020-02-13 22:38:13
716 DISCHARGE RUSH 1,007,920 852 - 15 - 3 - 3 - 2 536 2020-02-13 22:35:20
1,440 Heterochromia Iridis 788,660 563 - 6 - 0 - 2 - 1 478 2020-02-13 22:33:27
64 Staple on Smile 1,931,130 1,947 - 23 - 5 - 4 - 4 855 2020-02-13 22:32:47
331 Stress Free Style 1,316,315 1,234 - 8 - 1 - 2 - 1 636 2020-02-13 22:30:15
683 Stress Free Style 97,340 62 - 2 - 0 - 1 - 0 63 2020-02-13 22:28:35
48 Stress Free Style 3,799,075 2,875 - 15 - 2 - 1 - 5 2,214 2020-02-13 22:27:15
227 Stress Free Style 2,942,665 2,524 - 25 - 4 - 5 - 4 1,549 2020-02-13 22:23:45
62 Stress Free Style 3,538,055 2,869 - 18 - 3 - 3 - 4 1,956 2020-02-13 22:20:40
683 Stress Free Style 98,355 61 - 3 - 0 - 0 - 1 64 2020-02-13 22:17:03
415 Stress Free Style 876,610 559 - 8 - 0 - 0 - 2 567 2020-02-13 22:16:16
287 Stress Free Style 2,576,670 1,984 - 10 - 2 - 1 - 4 1,483 2020-02-13 22:14:47
33 Stress Free Style 3,922,715 2,879 - 13 - 0 - 1 - 0 2,336 2020-02-13 22:11:01
555 Stress Free Style 252,195 166 - 4 - 1 - 4 - 1 161 2020-02-13 22:07:35
2,546 La Campanella 2,723,890 1,941 - 20 - 4 - 4 - 7 1,652 2020-02-13 22:05:53
54 Extratone Pirates (Drunk Optimus Remix) 2,642,370 1,869 - 10 - 0 - 1 - 1 1,612 2020-02-13 22:02:46
117 A Quick Death 1,570,920 1,636 - 10 - 0 - 5 - 4 670 2020-02-13 22:00:25
20 Koi No Sibou Flag 2,547,875 2,945 - 39 - 4 - 12 - 5 921 2020-02-13 21:57:45
26 Heavenly Castle velier 2,790,945 2,253 - 16 - 1 - 2 - 2 1,548 2020-02-13 21:53:43
1,458 Slashmaid (instrumental) 1,251,720 809 - 4 - 0 - 1 - 1 806 2020-02-13 21:49:21
59 _.Pulse 2,149,700 2,246 - 19 - 1 - 6 - 1 911 2020-02-13 21:48:10
475 _.Pulse 141,950 85 - 8 - 0 - 0 - 0 93 2020-02-13 21:45:59
471 _.Pulse 136,060 94 - 0 - 0 - 2 - 1 85 2020-02-13 21:45:51
10 Miserable Bastard 1,478,815 1,300 - 9 - 0 - 2 - 2 762 2020-02-13 21:45:09
120 Miserable Bastard 165,915 109 - 1 - 0 - 1 - 0 106 2020-02-13 21:43:29
66 Fanteucpx[zv 1,828,345 1,248 - 1 - 0 - 1 - 1 1,142 2020-02-13 21:43:00
784 Double Helix 1,782,580 1,482 - 4 - 0 - 2 - 0 967 2020-02-13 21:41:17
98 A Dichroic Glass Snafu 1,483,605 1,690 - 30 - 1 - 10 - 5 549 2020-02-13 21:38:07
46 Hyper Weaboo Vodka Shots 1,512,800 1,712 - 50 - 6 - 12 - 8 561 2020-02-13 21:36:02
502 Epileptic Crisis [Oni] 1,254,475 1,036 - 10 - 5 - 1 - 2 682 2020-02-13 21:34:12
104 Cest What 1,675,620 1,297 - 8 - 0 - 3 - 0 961 2020-02-13 21:32:50
35 Cest What 1,608,845 1,543 - 9 - 0 - 4 - 2 759 2020-02-13 21:31:05
175 Cest What 429,505 273 - 5 - 0 - 0 - 1 278 2020-02-13 21:29:01
200 Cest What 185,725 119 - 1 - 0 - 0 - 0 120 2020-02-13 21:28:33
109 Finixe 1,547,320 996 - 8 - 0 - 2 - 3 998 2020-02-13 21:28:10
34 to Luv me I *** for u. 3,186,630 2,483 - 19 - 1 - 4 - 3 1,817 2020-02-13 21:26:35
362 Stress Free Style 1,086,915 858 - 8 - 1 - 4 - 0 614 2020-02-13 21:23:26
132 CirnoRHTL 293,840 192 - 2 - 0 - 1 - 0 188 2020-02-13 21:22:17
132 CirnoRHTL 296,015 190 - 3 - 0 - 1 - 0 191 2020-02-13 21:22:03
427 Heterochromia Iridis 2,240,205 1,685 - 27 - 0 - 3 - 2 1,307 2020-02-13 21:21:15
44 System Doctor 3,136,820 2,067 - 12 - 0 - 1 - 1 1,997 2020-02-13 21:18:10
32 Metro [FC] 3,827,395 2,457 - 15 - 0 - 0 - 4 2,472 2020-02-13 21:12:45
106 Rave 7 1,407,470 1,485 - 11 - 1 - 4 - 6 589 2020-02-13 21:09:18
73 Epileptic Crisis [Oni] 1,575,565 1,691 - 16 - 1 - 6 - 4 643 2020-02-13 21:07:13
45 Epileptic Crisis [Oni] 2,221,230 1,702 - 10 - 0 - 2 - 0 1,283 2020-02-13 21:05:09
201 cold (Kurorak's Bootleg) 1,307,185 1,448 - 37 - 4 - 5 - 3 502 2020-02-13 20:59:40
1,385 cold (Kurorak's Bootleg) 50,415 39 - 1 - 0 - 1 - 0 29 2020-02-13 20:57:53
97 Heterochromia Iridis 1,763,960 1,954 - 21 - 1 - 5 - 1 685 2020-02-13 20:57:14
34 CirnoRHTL 3,443,015 2,310 - 3 - 0 - 1 - 0 2,172 2020-02-13 20:54:52
132 CirnoRHTL 320,865 238 - 1 - 0 - 1 - 0 190 2020-02-13 20:52:12
68 Slashmaid (instrumental) [FC] 3,863,120 2,481 - 13 - 1 - 0 - 3 2,495 2020-02-13 20:51:45
3,470 Slashmaid (instrumental) 146,690 100 - 0 - 0 - 1 - 0 92 2020-02-13 20:48:42
49 Wizdomiot 2,567,540 2,023 - 8 - 0 - 1 - 0 1,453 2020-02-13 20:47:51
27 Extratone in a Perfect World 2,038,095 1,331 - 5 - 0 - 1 - 1 1,305 2020-02-13 20:45:09
68 Extratone Pirates 1,447,855 1,441 - 7 - 0 - 2 - 0 654 2020-02-13 20:43:05
289 Ketsarku Mozgalom [FC] 2,531,500 1,625 - 10 - 0 - 0 - 0 1,635 2020-02-13 20:41:17
12,527 Ketsarku Mozgalom 34,080 22 - 0 - 0 - 0 - 1 22 2020-02-13 20:38:39
1,287 Counter Clockwise Chant Pattern 666,835 607 - 2 - 1 - 2 - 0 333 2020-02-12 01:52:58
39 ephemera 1,488,440 1,137 - 11 - 1 - 3 - 3 861 2020-02-12 01:51:52
76 Wizdomiot 2,560,715 2,018 - 10 - 1 - 3 - 3 1,449 2020-02-12 01:50:11
50 CirnoRHTL [FC] 3,584,205 2,305 - 9 - 0 - 0 - 1 2,314 2020-02-12 01:46:52
86 CirnoRHTL 2,983,990 2,297 - 13 - 1 - 3 - 3 1,718 2020-02-12 01:44:12
132 CirnoRHTL 319,455 235 - 3 - 0 - 2 - 0 190 2020-02-12 01:41:33
39 LOSHAXI 1,571,305 1,315 - 18 - 1 - 3 - 1 844 2020-02-12 01:40:41
29 Verse IV 2,090,505 1,839 - 11 - 0 - 3 - 2 1,077 2020-02-12 01:38:53
680 Rengoku-Purgatorium- 956,295 616 - 3 - 0 - 1 - 1 617 2020-02-12 01:36:30
693 You Time 1,185,730 757 - 10 - 0 - 1 - 3 767 2020-02-12 01:35:03
633 Herbie Goes Ballistic 1,521,285 978 - 2 - 3 - 1 - 1 983 2020-02-12 01:33:44
56 Epidermis v2 5,055,570 3,663 - 18 - 0 - 3 - 5 3,037 2020-02-12 01:32:00
240 A Dichroic Glass Snafu 1,893,145 1,545 - 23 - 0 - 9 - 7 1,040 2020-02-12 01:27:12
566 Staple on Smile 919,420 1,050 - 13 - 7 - 6 - 9 340 2020-02-12 01:25:14
956 Staple on Smile 479,705 299 - 12 - 1 - 0 - 5 312 2020-02-12 01:24:12
517 Make the Fire Burn 1,491,095 1,042 - 16 - 3 - 5 - 1 915 2020-02-12 01:23:39
18 Heavenly Castle velier 2,795,325 2,266 - 5 - 0 - 1 - 2 1,548 2020-02-12 01:20:16
16 Hesperides 3,026,210 3,026 - 27 - 1 - 5 - 1 1,356 2020-02-12 01:17:58
34 Hyper Weaboo Vodka Shots 1,832,880 1,921 - 47 - 3 - 12 - 2 767 2020-02-12 01:14:15
71 Jamais Vu 2,235,205 1,975 - 14 - 1 - 3 - 1 1,146 2020-02-12 01:11:44
97 Rave 7 1,509,410 1,486 - 11 - 1 - 3 - 2 690 2020-02-12 01:09:02
135 to Luv me I *** for u. 1,057,110 663 - 19 - 5 - 0 - 2 687 2020-02-12 01:07:12
46 oppIrish (GYPSYCOREremix) 3,199,020 2,986 - 17 - 1 - 3 - 4 1,553 2020-02-12 01:05:55
74 Call me it. (500 Tortures) 1,734,770 2,195 - 19 - 1 - 12 - 2 526 2020-02-12 01:02:27
21 to Luv me I *** for u. 2,546,600 2,528 - 20 - 0 - 4 - 3 1,152 2020-02-12 00:59:42
1,286 DISCHARGE RUSH 342,690 218 - 4 - 0 - 1 - 0 222 2020-02-12 00:55:59
668 DISCHARGE RUSH 1,426,605 929 - 5 - 0 - 2 - 5 915 2020-02-12 00:55:40
2,412 Heterochromia Iridis 389,490 254 - 4 - 0 - 1 - 0 249 2020-02-12 00:54:33
369 Winter Wind Etude 2,424,355 2,304 - 31 - 2 - 8 - 0 1,151 2020-02-12 00:52:13
29 Parousia-LAST JUDGEMENT- 1,895,995 2,344 - 45 - 4 - 12 - 4 598 2020-02-12 00:49:13
1,627 Heterochromia Iridis 508,870 479 - 4 - 0 - 2 - 3 245 2020-02-12 00:46:11
3,132 Heterochromia Iridis 100,475 64 - 1 - 0 - 0 - 0 65 2020-02-12 00:45:39
1,364 Heterochromia Iridis 840,040 703 - 6 - 0 - 4 - 1 453 2020-02-12 00:45:31
2,413 Heterochromia Iridis 385,195 255 - 1 - 0 - 1 - 1 245 2020-02-12 00:44:48
66 Heterochromia Iridis 2,871,605 1,969 - 11 - 0 - 1 - 3 1,786 2020-02-12 00:44:02
192 White Walls [Part 2] 1,933,955 1,454 - 11 - 4 - 3 - 3 1,132 2020-02-12 00:41:14
28 High-Priestess 1,870,060 1,963 - 26 - 2 - 9 - 3 786 2020-02-12 00:36:54
701 Staple on Smile 783,975 736 - 11 - 4 - 3 - 7 377 2020-02-12 00:31:44
65 Staple on Smile 1,535,845 1,949 - 18 - 5 - 7 - 8 461 2020-02-12 00:30:56
51 OWA Raged In Vegas (Fuck Bees) 3,294,175 2,997 - 21 - 0 - 3 - 1 1,641 2020-02-12 00:28:25
2,031 A Quick Death 977,050 938 - 4 - 0 - 3 - 1 461 2020-02-12 00:24:01
116 Finixe 1,141,290 779 - 4 - 0 - 4 - 1 713 2020-02-12 00:19:20
149 Finixe 165,575 106 - 1 - 0 - 0 - 0 107 2020-02-12 00:18:17
7 Finixe 2,391,025 2,244 - 4 - 1 - 1 - 1 1,156 2020-02-12 00:17:54
132 CirnoRHTL 251,055 158 - 4 - 1 - 0 - 0 163 2020-02-12 00:15:16
45 CirnoRHTL [FC] 3,584,590 2,308 - 4 - 2 - 0 - 1 2,314 2020-02-12 00:15:01
129 CirnoRHTL 826,865 537 - 3 - 0 - 1 - 0 531 2020-02-12 00:12:09
132 CirnoRHTL 310,030 222 - 2 - 0 - 2 - 0 188 2020-02-12 00:11:05
53 Scrap Syndrome 3,423,265 2,429 - 6 - 1 - 1 - 4 2,086 2020-02-12 00:09:39
1,413 Scrap Syndrome 22,975 14 - 1 - 0 - 0 - 0 15 2020-02-12 00:06:35
441 Punkture 565,595 367 - 0 - 1 - 1 - 0 364 2020-02-12 00:06:03
559 Punkture 157,340 103 - 0 - 0 - 1 - 0 101 2020-02-12 00:05:25
8,049 Almost There [Oni] 615,930 404 - 4 - 0 - 1 - 3 393 2020-02-12 00:01:17
85 Almost There [Oni] 2,519,905 1,915 - 5 - 0 - 2 - 5 1,466 2020-02-12 00:00:27
15 Please Don't Remember 2,625,905 2,272 - 12 - 1 - 3 - 6 1,374 2020-02-11 23:57:26
35 While Sleeping (The Big Sleep) 1,803,015 1,499 - 28 - 11 - 2 - 6 971 2020-02-11 23:54:47
127 thinking of you 3,395,220 2,683 - 20 - 0 - 3 - 0 1,915 2020-02-11 23:51:00
1,170 thinking of you 433,540 287 - 0 - 0 - 1 - 0 276 2020-02-11 23:47:53
99 grind4 730,875 666 - 8 - 1 - 2 - 3 363 2020-02-11 23:47:12
141 grind4 575,205 655 - 15 - 0 - 7 - 0 213 2020-02-11 23:46:31
90 Stinger 2,554,450 2,015 - 9 - 1 - 1 - 1 1,444 2020-02-11 23:45:43
1,026 Serious Shit 743,355 761 - 28 - 1 - 3 - 1 318 2020-02-11 23:41:13
1,717 Serious Shit 132,520 81 - 3 - 3 - 0 - 1 87 2020-02-11 23:40:22
502 Powerflux 1,333,915 1,430 - 70 - 5 - 13 - 4 532 2020-02-11 23:40:00
8 Symphonies Of Suckness 2,512,550 2,974 - 50 - 2 - 9 - 11 866 2020-02-11 23:34:53
164 Odd-22 1,584,115 1,906 - 49 - 2 - 15 - 6 527 2020-02-11 23:30:52
710 Odd-22 127,565 92 - 1 - 0 - 1 - 0 77 2020-02-11 23:28:43
5,805 do i smile? 440,275 378 - 7 - 2 - 2 - 2 231 2020-02-11 23:28:17
2,079 Fushigi Usagi Milk Tei 664,415 493 - 7 - 0 - 2 - 2 392 2020-02-11 23:27:16
1,987 Slashmaid (instrumental) 676,630 451 - 8 - 0 - 2 - 0 427 2020-02-11 23:26:16
933 Slashmaid (instrumental) 1,251,770 1,449 - 10 - 0 - 3 - 0 453 2020-02-11 23:25:39
3,413 Slashmaid (instrumental) 168,455 108 - 0 - 1 - 0 - 0 109 2020-02-11 23:23:56
924 Slashmaid (instrumental) 2,269,820 1,452 - 11 - 5 - 0 - 4 1,468 2020-02-11 23:23:39
101 Eclipse (Solar) [FC] 2,238,650 1,441 - 4 - 0 - 0 - 0 1,445 2020-02-11 23:21:49
11,101 Eclipse (Solar) 730,490 475 - 2 - 0 - 1 - 0 469 2020-02-11 23:19:54
15 Six Acid Strings 2,155,565 1,806 - 24 - 1 - 1 - 4 1,156 2020-02-11 23:18:44
74 The Bridgeport Run 2,457,175 2,455 - 13 - 0 - 5 - 5 1,105 2020-02-11 23:16:14
116 Metro 2,229,505 1,798 - 23 - 0 - 2 - 5 1,235 2020-02-11 23:12:45
59 Epileptic Crisis [Oni] 1,966,205 1,694 - 16 - 1 - 3 - 1 1,031 2020-02-11 23:10:03
174 Rave 7 1,621,805 1,468 - 22 - 5 - 6 - 3 810 2020-02-11 23:07:59
52 DISCHARGE RUSH 1,829,440 1,867 - 15 - 3 - 2 - 4 799 2020-02-11 23:06:06
79 Heterochromia Iridis 1,954,020 1,963 - 13 - 1 - 4 - 1 872 2020-02-11 23:03:43
2,235 Heterochromia Iridis 499,275 318 - 5 - 0 - 0 - 0 323 2020-02-11 23:01:39
82 Heterochromia Iridis 2,202,690 1,961 - 16 - 0 - 4 - 1 1,121 2020-02-11 23:01:15
66 Stress Free Style 2,929,035 2,870 - 16 - 1 - 6 - 3 1,348 2020-02-11 22:58:27
680 Stress Free Style 107,950 68 - 2 - 0 - 0 - 0 70 2020-02-11 22:55:01
682 Stress Free Style 99,540 66 - 2 - 0 - 1 - 0 63 2020-02-11 22:54:52
61 J'ai Envie de Plaisir X2 [FC] 2,558,710 1,646 - 5 - 1 - 0 - 1 1,652 2020-02-11 22:50:32
22 Cest What 2,085,935 1,548 - 7 - 0 - 1 - 4 1,233 2020-02-11 22:48:06
20 Cest What 2,337,270 1,549 - 6 - 0 - 1 - 1 1,484 2020-02-11 22:46:02
108 Finixe 1,154,965 983 - 11 - 4 - 3 - 0 612 2020-02-11 22:43:51
107 Finixe 1,267,535 994 - 9 - 0 - 2 - 1 719 2020-02-11 22:42:38
149 Finixe 131,475 84 - 1 - 0 - 0 - 0 85 2020-02-11 22:41:25
150 Finixe 72,840 53 - 0 - 0 - 1 - 0 44 2020-02-11 22:41:09
9 Finixe 2,484,870 2,239 - 10 - 0 - 1 - 1 1,251 2020-02-11 22:39:51
78 All your base are belong to ME 3,706,765 3,546 - 15 - 0 - 2 - 2 1,753 2020-02-11 22:35:40
95 Slashmaid (instrumental) 2,552,715 2,478 - 11 - 2 - 4 - 4 1,188 2020-02-11 22:31:00
81 Slashmaid (instrumental) 2,650,405 2,478 - 15 - 0 - 2 - 0 1,284 2020-02-11 22:27:30
61 Slashmaid (instrumental) [FC] 3,863,765 2,484 - 9 - 2 - 0 - 1 2,495 2020-02-11 22:23:24
67 Slashmaid (instrumental) 2,206,135 2,483 - 9 - 0 - 3 - 3 839 2020-02-11 22:18:56
14 Punkture 1,879,445 1,329 - 3 - 0 - 1 - 1 1,148 2020-02-11 22:15:14
103 Slashmaid (instrumental) 3,103,960 2,471 - 20 - 2 - 2 - 4 1,740 2020-02-11 22:12:51
146 Slashmaid (instrumental) 2,010,685 2,459 - 21 - 6 - 9 - 4 655 2020-02-11 22:08:54
71 Extratone Pirates 2,216,870 1,439 - 10 - 0 - 1 - 1 1,423 2020-02-11 22:05:14
1,993 Slashmaid (instrumental) 442,125 447 - 10 - 3 - 2 - 1 194 2020-02-10 22:33:47
138 Electro Rush x8 v2 [FC] 1,881,305 1,208 - 7 - 0 - 0 - 1 1,215 2020-02-10 22:32:57
653 cold (Kurorak's Bootleg) 1,162,095 807 - 31 - 2 - 1 - 4 710 2020-02-09 19:35:59
354 DISCHARGE RUSH 1,667,155 1,550 - 24 - 1 - 6 - 7 810 2020-02-09 19:34:49
97 Heterochromia Iridis 2,342,680 1,951 - 25 - 1 - 4 - 3 1,264 2020-02-09 19:33:00
96 Jamais Vu 1,983,565 1,960 - 30 - 1 - 2 - 6 898 2020-02-09 19:30:37
66 A Dichroic Glass Snafu 2,318,900 1,703 - 25 - 1 - 2 - 3 1,376 2020-02-09 19:27:58
632 Epileptic Crisis [Oni] 838,320 842 - 14 - 2 - 2 - 6 372 2020-02-09 19:25:53
73 endleSSStation 1,044,940 906 - 13 - 1 - 3 - 3 544 2020-02-09 19:24:50
144 endleSSStation 117,975 72 - 5 - 0 - 0 - 0 77 2020-02-09 19:23:40
27 VIS::CRACKED 2,068,365 2,362 - 55 - 0 - 12 - 7 758 2020-02-09 19:23:24
79 Fushigi Usagi Milk Tei 1,916,745 1,770 - 14 - 1 - 2 - 2 940 2020-02-09 19:20:24
3,427 Fushigi Usagi Milk Tei 95,825 61 - 1 - 0 - 0 - 0 62 2020-02-09 19:18:00
83 System Doctor 2,960,655 2,055 - 22 - 1 - 2 - 4 1,825 2020-02-09 19:17:48
258 Lawn Wake XI 1,837,400 1,342 - 7 - 1 - 2 - 3 1,098 2020-02-09 19:14:28
3,883 grind2 59,180 54 - 4 - 0 - 2 - 0 29 2020-02-09 19:12:15
38 Antigravity 1,755,570 1,650 - 17 - 1 - 2 - 2 844 2020-02-09 19:11:45
245 Rave 7 1,795,175 1,429 - 66 - 3 - 3 - 8 992 2020-02-09 17:30:27
188 WE EAT AT FIVE FIVE FIVE (guys) 1,371,780 1,090 - 6 - 0 - 1 - 3 771 2020-02-09 17:28:38
639 Ketsarku Mozgalom 1,940,205 1,605 - 23 - 4 - 3 - 8 1,052 2020-02-09 17:25:01
224 _.Pulse 1,844,575 1,471 - 19 - 6 - 3 - 5 1,031 2020-02-08 17:39:46
454 _.Pulse 185,725 119 - 1 - 0 - 0 - 0 120 2020-02-08 17:38:16
34 Antigravity 2,010,805 1,660 - 5 - 0 - 5 - 1 1,098 2020-02-08 17:37:52
158 Antigravity 550,365 368 - 1 - 0 - 1 - 0 348 2020-02-08 17:35:59
10 Chaos [schmutz06] 1,607,605 1,230 - 9 - 0 - 1 - 3 929 2020-02-08 17:33:56
31 Djentrap [FC] 2,693,625 1,737 - 1 - 0 - 0 - 0 1,738 2020-02-08 17:30:51
55 Re: End of a Dream [FC] 2,745,825 1,761 - 12 - 1 - 0 - 4 1,774 2020-02-08 17:26:06
77 Schur's Theorem [FC] 2,076,705 1,339 - 1 - 0 - 0 - 1 1,340 2020-02-08 17:23:01
147 Schur's Theorem [FC] 2,075,625 1,335 - 5 - 0 - 0 - 0 1,340 2020-02-08 17:20:09
119 The Steel Monster Above the City [FC] 2,866,850 1,843 - 8 - 0 - 0 - 0 1,851 2020-02-08 17:17:35
30 Punkture 1,376,480 1,325 - 5 - 1 - 2 - 4 647 2020-02-08 17:13:45
27 Punkture [FC] 2,063,275 1,324 - 8 - 1 - 0 - 9 1,333 2020-02-08 17:11:35
1 Ant IDM [AAA] [FC] 2,424,200 1,564 - 0 - 0 - 0 - 0 1,564 2020-02-08 17:08:53
97 Stinger [FC] 3,136,390 2,012 - 14 - 0 - 0 - 3 2,026 2020-02-08 17:05:38
35 Parousia-LAST JUDGEMENT- 2,661,695 2,050 - 51 - 4 - 3 - 6 1,521 2020-02-08 03:16:34
53 Metro 2,323,155 2,438 - 30 - 1 - 3 - 6 975 2020-02-08 03:14:04
81 Staple on Smile 1,717,650 1,928 - 37 - 7 - 7 - 7 649 2020-02-08 03:10:37
267 Playing Super Mario World While Taking Mushrooms 2,332,335 2,535 - 37 - 4 - 7 - 7 930 2020-02-08 03:07:34
106 Finixe 1,525,180 993 - 7 - 1 - 3 - 1 978 2020-02-08 03:04:37
1,069 All your base are belong to ME 403,145 264 - 1 - 0 - 1 - 1 258 2020-02-08 03:03:10
631 All your base are belong to ME 1,965,565 1,517 - 9 - 2 - 1 - 3 1,129 2020-02-08 03:02:46
133 Rengoku-Purgatorium- 2,332,510 1,763 - 20 - 0 - 2 - 1 1,358 2020-02-08 03:00:45
2,724 Schmollbluk 1,010,415 644 - 9 - 2 - 1 - 3 654 2020-02-08 02:58:14
64 Stress Free Style 3,383,850 2,866 - 24 - 0 - 3 - 6 1,802 2020-02-08 02:52:06
2,394 La Campanella 1,927,925 2,021 - 19 - 2 - 6 - 5 813 2020-02-08 02:48:30
154 A Quick Death 1,758,005 1,624 - 22 - 1 - 4 - 3 860 2020-02-08 02:45:27
15 Please Don't Remember 2,324,000 2,270 - 15 - 1 - 2 - 3 1,072 2020-02-08 02:33:40
108 J'ai Envie de Plaisir X2 1,597,230 1,639 - 10 - 0 - 3 - 2 694 2020-02-08 02:30:22
3,963 J'ai Envie de Plaisir X2 15,225 9 - 1 - 0 - 0 - 0 10 2020-02-08 02:28:04
3,917 J'ai Envie de Plaisir X2 16,775 10 - 1 - 0 - 0 - 0 11 2020-02-08 02:28:01
107 Counter Clockwise Chant Pattern 1,454,110 1,415 - 4 - 0 - 4 - 0 676 2020-02-08 02:27:53
133 grind4 585,010 654 - 19 - 1 - 3 - 2 221 2020-02-08 02:25:38
38 Japan Style Breakcore!!! [FC] 3,464,385 2,231 - 5 - 0 - 0 - 2 2,236 2020-02-08 02:21:20
44 Punkture 1,264,905 1,322 - 4 - 3 - 4 - 11 538 2020-02-08 02:17:59
82 Fushigi Usagi Milk Tei 2,076,360 1,770 - 14 - 0 - 3 - 3 1,100 2020-02-08 02:15:59
92 Antigravity 1,992,770 1,459 - 6 - 0 - 1 - 1 1,189 2020-02-08 02:13:23
50 Heterochromia Iridis 2,866,725 1,973 - 7 - 0 - 1 - 2 1,780 2020-02-08 02:02:55
65 Heterochromia Iridis 2,666,080 1,969 - 10 - 0 - 2 - 0 1,581 2020-02-08 01:58:33
80 Heterochromia Iridis [FC] 3,063,975 1,960 - 18 - 3 - 0 - 7 1,981 2020-02-08 01:56:25
75 Heterochromia Iridis [FC] 3,064,475 1,960 - 20 - 1 - 0 - 4 1,981 2020-02-08 01:52:03
23 Six Acid Strings 1,818,720 1,789 - 39 - 1 - 3 - 4 825 2020-02-08 01:47:54
62 Epileptic Crisis [Oni] 2,027,790 1,691 - 18 - 4 - 1 - 6 1,093 2020-02-08 01:45:29
92 do i smile? 3,031,305 2,078 - 32 - 1 - 1 - 7 1,880 2020-02-08 01:43:12
262 Reluctantly Accepting Temporary Overexhaustion 1,094,060 1,453 - 79 - 7 - 16 - 12 278 2020-02-08 01:36:21
139 Rave 7 1,742,010 1,472 - 24 - 4 - 1 - 5 926 2020-02-08 01:31:34
29 to Luv me I *** for u. 2,227,150 2,501 - 44 - 2 - 5 - 3 841 2020-02-08 01:29:28
27 Heavenly Castle velier 2,790,045 2,246 - 19 - 2 - 5 - 2 1,551 2020-02-08 01:25:39
11 Finixe 2,444,925 2,232 - 17 - 0 - 1 - 2 1,213 2020-02-08 01:23:16
54 Herbie Goes Ballistic 5,261,905 4,022 - 8 - 1 - 1 - 7 3,048 2020-02-08 01:19:51
142 Eclipse (Solar) [FC] 2,237,825 1,438 - 7 - 0 - 0 - 0 1,445 2020-02-08 01:14:05
21,475 Eclipse (Solar) 77,225 49 - 1 - 0 - 0 - 0 50 2020-02-08 01:12:13
143 Stinger 2,753,110 2,006 - 16 - 2 - 2 - 4 1,646 2020-02-08 01:11:14
86 grind2 [FC] 1,359,505 873 - 5 - 0 - 0 - 1 878 2020-02-08 01:08:01
11 Antigravity [FC] 2,587,635 1,667 - 3 - 0 - 0 - 2 1,670 2020-02-08 01:00:56
18 Gameshow Suitcase 2,050,235 1,520 - 10 - 3 - 2 - 3 1,212 2020-02-08 00:58:59
199 DeVouR 1,566,290 1,441 - 27 - 7 - 3 - 7 767 2020-02-08 00:56:54
31 Antigravity [FC] 2,584,225 1,657 - 10 - 3 - 0 - 2 1,670 2020-02-08 00:54:23
60 Super Mario Main Theme 3,084,730 2,774 - 6 - 0 - 2 - 0 1,558 2020-02-08 00:52:19
31 Antigravity 1,799,220 1,657 - 12 - 0 - 1 - 6 885 2020-02-08 00:48:12
1 Cycles [AAA] [FC] 1,802,650 1,163 - 0 - 0 - 0 - 0 1,163 2020-02-08 00:44:52
71 Tachyon Beam Cannon 388,075 330 - 50 - 5 - 11 - 2 196 2020-02-07 02:34:06
299 Crystal Chamber Combustion (bike) 289,665 276 - 53 - 8 - 13 - 6 127 2020-02-07 02:33:31
17 Please Don't Remember [FC] 3,538,215 2,261 - 24 - 3 - 0 - 5 2,288 2020-02-07 02:29:37
77 Please Don't Remember 211,780 135 - 2 - 0 - 0 - 1 137 2020-02-07 02:26:39
35 Cest What 2,082,025 1,538 - 16 - 1 - 1 - 1 1,232 2020-02-07 02:25:57
267 Lawn Wake XI 1,794,675 1,337 - 11 - 0 - 2 - 4 1,057 2020-02-07 02:23:45
76 Amber Shores [FC] 2,687,435 1,720 - 16 - 1 - 0 - 1 1,737 2020-02-07 02:21:36
55 Cold Heart [FC] 1,609,900 1,037 - 2 - 0 - 0 - 0 1,039 2020-02-07 02:18:52
122 Cutthroat 1,345,665 951 - 11 - 0 - 1 - 5 820 2020-02-07 02:17:05
139 Verse IV 887,785 889 - 29 - 2 - 7 - 4 393 2020-02-07 02:15:13
32 Chaos [schmutz06] 1,550 1 - 0 - 0 - 0 - 0 1 2020-02-07 02:13:55
16 Chaos [schmutz06] 1,050,125 1,212 - 21 - 0 - 7 - 4 380 2020-02-07 02:13:53
120 The Bird's Midair Heatstroke 1,216,805 1,346 - 9 - 0 - 3 - 2 475 2020-02-07 02:11:37
6,366 Almost There [Oni] 695,170 576 - 10 - 0 - 14 - 2 380 2020-02-05 02:03:13
2,299 Playing Super Mario World While Taking Mushrooms 1,220,645 1,078 - 12 - 1 - 5 - 3 626 2020-02-05 02:02:13
101 Finixe 1,548,785 998 - 8 - 1 - 1 - 3 998 2020-02-05 02:00:53
103 ElectroMashcore 1,712,225 1,104 - 5 - 0 - 1 - 2 1,104 2020-02-05 01:59:24
106 ElectroMashcore 1,470,845 956 - 5 - 0 - 1 - 1 944 2020-02-05 01:57:55
462 Shippuujinrai 1,980,185 1,280 - 3 - 0 - 2 - 1 1,276 2020-02-05 01:56:14
521 Aragami 1,448,165 1,208 - 11 - 2 - 1 - 3 781 2020-02-05 01:54:08
181 Piano Etude (Demon Fire) [Oni] 845,015 769 - 6 - 1 - 2 - 1 421 2020-02-05 01:52:11
127 Pandora 1,078,060 942 - 8 - 2 - 1 - 2 558 2020-02-05 01:50:59
14 No Time For Sleep 697,070 606 - 4 - 0 - 1 - 1 363 2020-02-05 01:48:11
140 No Time For Sleep 67,925 43 - 1 - 0 - 0 - 0 44 2020-02-05 01:46:59
63 Breakbeat Acid [FC] 1,645,740 1,057 - 5 - 1 - 0 - 2 1,063 2020-02-05 01:46:11
38 While Sleeping (The Big Sleep) 1,209,405 991 - 16 - 5 - 4 - 4 661 2020-02-05 01:43:38
8 Symphonies Of Suckness 2,775,705 2,956 - 67 - 4 - 8 - 13 1,134 2020-02-05 01:39:41
98 Powerflux 2,684,645 3,658 - 132 - 15 - 36 - 11 647 2020-02-05 01:35:35
22 Mishnu 2,207,735 2,709 - 96 - 17 - 7 - 19 693 2020-02-05 01:31:56
527 Make the Fire Burn 1,217,860 943 - 16 - 2 - 4 - 3 696 2020-02-05 01:28:36
3,170 Revolutionary Etude 1,902,965 1,236 - 31 - 0 - 4 - 6 1,216 2020-02-05 01:27:06
3,779 Revolutionary Etude 1,855,150 1,196 - 6 - 0 - 20 - 5 1,202 2020-02-05 01:24:41
116 Metro 1,573,430 1,317 - 16 - 2 - 1 - 6 845 2020-02-05 01:22:32
30 The Bridgeport Run 3,063,450 2,676 - 12 - 0 - 5 - 5 1,590 2020-02-05 01:20:31
329 A Dichroic Glass Snafu 1,790,590 1,376 - 8 - 2 - 24 - 4 1,039 2020-02-05 01:16:44
106 Jamais Vu 1,633,665 1,953 - 33 - 2 - 5 - 6 552 2020-02-05 01:14:50
718 Epileptic Crisis [Oni] 679,565 566 - 8 - 1 - 3 - 3 367 2020-02-05 01:12:14
1,201 Epileptic Crisis [Oni] 241,020 155 - 4 - 0 - 1 - 1 155 2020-02-05 01:11:34
55 Epileptic Crisis [Oni] 2,398,495 1,697 - 14 - 1 - 2 - 7 1,462 2020-02-05 01:11:20
1,947 Fushigi Usagi Milk Tei 908,450 591 - 10 - 0 - 1 - 2 581 2020-02-05 01:09:07
159 cold (Kurorak's Bootleg) 1,582,930 1,601 - 36 - 8 - 6 - 5 694 2020-02-05 01:08:03
350 DISCHARGE RUSH 2,077,005 1,553 - 19 - 6 - 2 - 4 1,218 2020-02-05 01:06:08
15 Six Acid Strings 1,674,510 1,811 - 16 - 2 - 3 - 6 675 2020-02-05 01:04:18
98 Heterochromia Iridis 2,404,945 1,952 - 21 - 6 - 2 - 7 1,326 2020-02-05 01:01:41
146 Rave 7 2,230,620 1,473 - 22 - 4 - 2 - 9 1,415 2020-02-05 00:59:25
1,802 J'ai Envie de Plaisir X2 1,081,135 1,006 - 11 - 2 - 4 - 3 526 2020-02-05 00:57:36
121 A Quick Death 1,866,680 1,633 - 14 - 0 - 4 - 4 966 2020-02-05 00:56:00
1,298 Slashmaid (instrumental) 1,357,495 1,083 - 5 - 2 - 2 - 1 761 2020-02-05 00:53:16
438 Rengoku-Purgatorium- 2,101,930 1,558 - 7 - 1 - 3 - 1 1,244 2020-02-05 00:51:41
700 Rengoku-Purgatorium- 619,645 524 - 5 - 0 - 3 - 0 331 2020-02-05 00:49:31
39 LOSHAXI 1,672,675 1,315 - 17 - 4 - 1 - 8 945 2020-02-05 00:48:27
273 Grist [Part 2] 1,860,940 1,469 - 9 - 5 - 2 - 7 1,051 2020-02-05 00:46:38
5,589 Eclipse (Solar) 1,315,280 876 - 4 - 0 - 2 - 0 833 2020-02-05 00:44:26
20,369 Eclipse (Solar) 126,515 81 - 1 - 0 - 1 - 0 82 2020-02-05 00:43:24
21,474 Eclipse (Solar) 77,225 49 - 1 - 0 - 0 - 0 50 2020-02-05 00:43:15
21,077 Eclipse (Solar) 90,690 60 - 0 - 0 - 1 - 0 58 2020-02-05 00:43:10
13,514 Eclipse (Solar) 455,425 293 - 1 - 0 - 0 - 0 294 2020-02-05 00:43:03
216 thinking of you 2,161,425 2,642 - 19 - 0 - 6 - 2 705 2020-02-05 00:42:27
31 Rain [YMCK] 3,510,155 3,348 - 5 - 0 - 2 - 0 1,668 2020-02-05 00:39:22
90 grind4 [FC] 1,046,045 666 - 10 - 1 - 0 - 3 677 2020-02-05 00:33:55
118 grind4 591,075 660 - 12 - 1 - 4 - 2 226 2020-02-05 00:33:00
112 ephemera 1,014,005 889 - 20 - 3 - 5 - 3 521 2020-02-05 00:31:33
38 _.Pulse 2,650,475 2,260 - 10 - 1 - 1 - 1 1,405 2020-02-05 00:30:10